M I D A S
Marine Information and Data Acquisition System
Tripno 1512 of the Zeeleeuw from 2008-06-27 07:43:53 to 2008-06-27 10:21:05
Back to CruiseResearch ActivitiesStationsMapUnderway DataData graphs

EquipmentUnitsComment
TimeDGPSUTC
LatitudeDGPSDM.mWGS84
LongitudeDGPSDM.mWGS84
TemperatureSBE03/SBE38deg celciusITS90
ConductivitySBE21S/mITS90
SalinitySBE21 Practical Salinity Units
ChlorophylAChelsea fluorimeterg/lCalibrated in Aceton
Missing or incorrect values are displayed as -999
Sea surface data collected by the RV Zeeleeuw from 2008-06-27 07:43:57 to 2008-06-27 10:23:23
                                                                                    Next 1000 lines
Time Latitude Longitude Temperature Conductivity Salinity ChlorophylA
2008-06-27 07:44:07 51°13.622 2°56.049 21.3117 0.011233 0.062605 -1.627401
2008-06-27 07:44:12 51°13.621 2°56.049 21.3132 0.011233 0.062606 -1.627401
2008-06-27 07:44:17 51°13.621 2°56.049 21.3132 0.011233 0.062605 -1.592577
2008-06-27 07:44:22 51°13.621 2°56.049 21.3084 0.011233 0.062605 -1.627401
2008-06-27 07:44:27 51°13.621 2°56.049 21.3091 0.011233 0.062605 -1.627401
2008-06-27 07:44:32 51°13.621 2°56.048 21.3088 0.011233 0.062605 -1.627401
2008-06-27 07:44:37 51°13.621 2°56.046 21.3118 0.011233 0.062605 -1.627401
2008-06-27 07:44:42 51°13.621 2°56.045 21.3085 0.011233 0.062605 -1.627401
2008-06-27 07:44:47 51°13.622 2°56.042 21.3062 0.011233 0.062605 -1.627401
2008-06-27 07:44:52 51°13.622 2°56.039 21.3106 0.011233 0.062605 -1.627401
2008-06-27 07:44:57 51°13.623 2°56.035 21.3134 0.011233 0.062605 -1.627401
2008-06-27 07:45:02 51°13.624 2°56.03 21.3132 0.011233 0.062605 -1.627401
2008-06-27 07:45:07 51°13.625 2°56.025 21.3166 0.011233 0.062605 -1.627401
2008-06-27 07:45:12 51°13.626 2°56.018 21.3156 0.011233 0.062605 -1.627401
2008-06-27 07:45:17 51°13.628 2°56.011 21.3177 0.011233 0.062604 -1.627401
2008-06-27 07:45:22 51°13.63 2°56.004 21.3179 0.011233 0.062604 -1.627401
2008-06-27 07:45:27 51°13.632 2°55.996 20.7963 0.011233 0.062605 -1.627401
2008-06-27 07:45:32 51°13.633 2°55.988 20.1237 0.011233 0.062816 -1.662225
2008-06-27 07:45:37 51°13.635 2°55.979 19.8106 0.011233 0.062816 -1.662225
2008-06-27 07:45:42 51°13.638 2°55.97 19.4595 0.011233 0.063024 -1.592577
2008-06-27 07:45:47 51°13.64 2°55.961 19.2771 3.498124 25.009581 0.35757
2008-06-27 07:45:52 51°13.643 2°55.952 19.1573 3.436167 24.057688 0.70581
2008-06-27 07:45:57 51°13.645 2°55.943 19.0906 3.787968 26.638186 1.959476
2008-06-27 07:46:02 51°13.649 2°55.934 18.9664 3.92752 27.772642 3.944447
2008-06-27 07:46:07 51°13.652 2°55.924 18.904 3.92752 27.772642 3.944447
2008-06-27 07:46:12 51°13.656 2°55.915 18.8892 4.029257 28.644595 8.471574
2008-06-27 07:46:17 51°13.659 2°55.905 18.8231 4.00717 28.683171 10.83961
2008-06-27 07:46:22 51°13.663 2°55.896 18.7483 4.020552 28.981086 11.919156
2008-06-27 07:46:27 51°13.667 2°55.887 18.7544 4.000849 28.937829 12.720109
2008-06-27 07:46:32 51°13.671 2°55.878 18.7227 4.001266 29.05425 13.346942
2008-06-27 07:46:37 51°13.675 2°55.869 18.7132 4.001266 29.05425 13.346942
2008-06-27 07:46:42 51°13.679 2°55.861 18.6566 3.995252 29.086184 13.869303
2008-06-27 07:46:47 51°13.682 2°55.853 18.6588 3.989031 29.097493 14.670256
2008-06-27 07:46:52 51°13.686 2°55.844 18.6068 3.99038 29.168267 15.331913
2008-06-27 07:46:57 51°13.69 2°55.835 18.5915 4.007908 29.356304 15.645329
2008-06-27 07:47:02 51°13.694 2°55.826 18.5987 4.011746 29.422628 16.132866
2008-06-27 07:47:07 51°13.697 2°55.817 18.5824 4.011746 29.422628 16.132866
2008-06-27 07:47:12 51°13.701 2°55.808 18.5691 4.011643 29.443516 16.272162
2008-06-27 07:47:17 51°13.704 2°55.8 18.5572 4.023259 29.568693 16.132866
2008-06-27 07:47:22 51°13.707 2°55.792 18.5493 4.019215 29.55971 16.446283
2008-06-27 07:47:27 51°13.709 2°55.784 18.5252 4.025438 29.634866 16.620403
2008-06-27 07:47:32 51°13.712 2°55.777 18.5055 4.027305 29.6637 16.620403
2008-06-27 07:47:37 51°13.714 2°55.77 18.5026 4.027305 29.6637 16.620403
2008-06-27 07:47:42 51°13.716 2°55.763 18.5027 4.002622 29.474254 16.550755
2008-06-27 07:47:47 51°13.718 2°55.757 18.5054 4.020461 29.638006 16.515931
2008-06-27 07:47:52 51°13.719 2°55.751 18.5003 4.02378 29.676549 16.411459
2008-06-27 07:47:58 51°13.721 2°55.745 18.4957 4.044109 29.856062 16.481107
2008-06-27 07:48:02 51°13.722 2°55.742 18.492 4.048154 29.902432 16.341811
2008-06-27 07:48:07 51°13.723 2°55.737 18.4937 4.048154 29.902432 16.341811
2008-06-27 07:48:12 51°13.724 2°55.734 18.4839 4.038094 29.831059 16.16769
2008-06-27 07:48:17 51°13.724 2°55.732 18.4771 4.034567 29.808874 16.237338
2008-06-27 07:48:22 51°13.725 2°55.731 18.4839 4.032908 29.799771 16.098042
2008-06-27 07:48:27 51°13.725 2°55.73 18.4738 4.020877 29.704202 16.098042
2008-06-27 07:48:32 51°13.726 2°55.731 18.4742 4.022433 29.721537 16.028394
2008-06-27 07:48:37 51°13.726 2°55.733 18.475 4.022433 29.721537 16.028394
2008-06-27 07:48:42 51°13.727 2°55.735 18.4781 4.011854 29.637918 15.81945
2008-06-27 07:48:47 51°13.728 2°55.737 18.4811 4.015276 29.669468 16.028394
2008-06-27 07:48:52 51°13.729 2°55.739 18.4818 4.004387 29.583854 15.889098
2008-06-27 07:48:57 51°13.73 2°55.741 18.4788 4.010091 29.633602 15.854274
2008-06-27 07:49:02 51°13.73 2°55.741 18.4693 4.000964 29.56192 15.714978
2008-06-27 07:49:07 51°13.73 2°55.741 18.4714 4.000964 29.56192 15.714978
2008-06-27 07:49:12 51°13.73 2°55.74 18.4639 3.989453 29.467821 15.575681
2008-06-27 07:49:17 51°13.729 2°55.739 18.4597 3.976282 29.360128 15.506033
2008-06-27 07:49:22 51°13.728 2°55.737 18.4646 3.975867 29.356719 15.471209
2008-06-27 07:49:27 51°13.726 2°55.734 18.4625 3.975867 29.357841 15.645329
2008-06-27 07:49:32 51°13.724 2°55.731 18.456 3.97566 29.357819 15.506033
2008-06-27 07:49:37 51°13.723 2°55.729 18.453 3.97566 29.357819 15.506033
2008-06-27 07:49:42 51°13.721 2°55.726 18.447 3.977215 29.372848 15.81945
2008-06-27 07:49:47 51°13.72 2°55.724 18.4425 3.969023 29.307763 15.854274
2008-06-27 07:49:52 51°13.719 2°55.722 18.4334 3.968504 29.305182 15.749802
2008-06-27 07:49:57 51°13.719 2°55.721 18.4247 3.965186 29.280153 15.854274
2008-06-27 07:50:02 51°13.719 2°55.721 18.4162 3.956475 29.210263 15.680154
2008-06-27 07:50:07 51°13.72 2°55.721 18.4124 3.956475 29.210263 15.680154
2008-06-27 07:50:12 51°13.721 2°55.722 18.4111 3.971512 29.336623 15.680154
2008-06-27 07:50:17 51°13.724 2°55.723 18.4168 3.971823 29.341985 15.680154
2008-06-27 07:50:22 51°13.727 2°55.723 18.4136 3.978875 29.405589 15.784626
2008-06-27 07:50:27 51°13.731 2°55.724 18.4188 3.98209 29.438789 16.098042
2008-06-27 07:50:32 51°13.736 2°55.723 18.4164 3.993602 29.540872 16.063218
2008-06-27 07:50:37 51°13.741 2°55.721 18.4136 3.993602 29.540872 16.063218
2008-06-27 07:50:42 51°13.746 2°55.718 18.4232 4.002313 29.614881 16.028394
2008-06-27 07:50:47 51°13.751 2°55.714 18.4315 4.00501 29.640497 16.028394
2008-06-27 07:50:52 51°13.757 2°55.709 18.4319 4.004284 29.636785 15.958746
2008-06-27 07:50:57 51°13.763 2°55.703 18.433 4.001795 29.616844 15.81945
2008-06-27 07:51:02 51°13.77 2°55.697 18.4326 3.996713 29.575546 15.889098
2008-06-27 07:51:07 51°13.778 2°55.69 18.4272 3.996713 29.575546 15.889098
2008-06-27 07:51:12 51°13.786 2°55.683 18.4239 3.984994 29.479599 15.645329
2008-06-27 07:51:17 51°13.794 2°55.674 18.4127 3.971201 29.363816 15.506033
2008-06-27 07:51:22 51°13.803 2°55.666 18.4341 3.953157 29.212037 15.436385
2008-06-27 07:51:27 51°13.812 2°55.657 18.4515 3.946624 29.156099 15.436385
2008-06-27 07:51:32 51°13.821 2°55.648 18.4503 3.94455 29.138496 15.575681
2008-06-27 07:51:37 51°13.831 2°55.639 18.4572 3.94455 29.138496 15.575681
2008-06-27 07:51:42 51°13.841 2°55.631 18.4586 3.948075 29.16859 15.714978
2008-06-27 07:51:47 51°13.851 2°55.623 18.4541 3.949942 29.186725 15.81945
2008-06-27 07:51:52 51°13.862 2°55.616 18.4455 3.936254 29.074781 16.063218
2008-06-27 07:51:57 51°13.872 2°55.608 18.4434 3.910642 28.859468 15.889098
2008-06-27 07:52:02 51°13.881 2°55.602 18.4275 3.886275 28.652463 15.923922
2008-06-27 07:52:07 51°13.891 2°55.595 18.4142 3.886275 28.652463 15.923922
2008-06-27 07:52:12 51°13.9 2°55.589 18.4164 3.85828 28.418231 15.958746
2008-06-27 07:52:17 51°13.91 2°55.582 18.4111 3.830702 28.190433 16.237338
2008-06-27 07:52:22 51°13.919 2°55.576 18.403 3.817847 28.085343 16.446283
2008-06-27 07:52:27 51°13.928 2°55.57 18.3914 3.812975 28.047669 16.620403
2008-06-27 07:52:32 51°13.937 2°55.565 18.3816 3.816085 28.076841 16.585579
2008-06-27 07:52:37 51°13.946 2°55.559 18.3724 3.816085 28.076841 16.585579
2008-06-27 07:52:42 51°13.955 2°55.553 18.363 3.826348 28.168288 16.376635
2008-06-27 07:52:47 51°13.964 2°55.548 18.3664 3.834953 28.243544 16.376635
2008-06-27 07:52:52 51°13.972 2°55.542 18.3553 3.847602 28.352503 16.411459
2008-06-27 07:52:57 51°13.981 2°55.537 18.347 3.862532 28.480798 16.376635
2008-06-27 07:53:02 51°13.989 2°55.531 18.3367 3.875907 28.596468 16.411459
2008-06-27 07:53:07 51°13.998 2°55.526 18.3288 3.875907 28.596468 16.411459
2008-06-27 07:53:12 51°14.006 2°55.52 18.3258 3.8926 28.740586 16.515931
2008-06-27 07:53:17 51°14.015 2°55.515 18.3188 3.904732 28.846282 16.550755
2008-06-27 07:53:22 51°14.023 2°55.51 18.315 3.916656 28.950923 16.550755
2008-06-27 07:53:27 51°14.032 2°55.504 18.3104 3.9235 29.01331 16.655227
2008-06-27 07:53:32 51°14.04 2°55.499 18.3095 3.929618 29.069209 17.038292
2008-06-27 07:53:37 51°14.048 2°55.494 18.3058 3.929618 29.069209 17.038292
2008-06-27 07:53:42 51°14.057 2°55.488 18.3103 3.937914 29.144747 16.898995
2008-06-27 07:53:47 51°14.065 2°55.482 18.3041 3.94144 29.178814 16.829347
2008-06-27 07:53:52 51°14.073 2°55.477 18.3084 3.950669 29.260453 16.794523
2008-06-27 07:53:57 51°14.081 2°55.471 18.3103 3.955025 29.300283 16.829347
2008-06-27 07:54:02 51°14.09 2°55.466 18.314 3.956684 29.316774 16.724875
2008-06-27 07:54:07 51°14.098 2°55.46 18.3185 3.956684 29.316774 16.724875
2008-06-27 07:54:12 51°14.106 2°55.454 18.3231 3.958758 29.33669 16.864171
2008-06-27 07:54:17 51°14.114 2°55.447 18.3231 3.958136 29.333812 16.655227
2008-06-27 07:54:22 51°14.122 2°55.441 18.3278 3.954817 29.307011 16.655227
2008-06-27 07:54:27 51°14.129 2°55.434 18.3309 3.955958 29.316417 16.481107
2008-06-27 07:54:32 51°14.137 2°55.426 18.3331 3.950773 29.272542 16.481107
2008-06-27 07:54:37 51°14.144 2°55.419 18.3438 3.950773 29.272542 16.481107
2008-06-27 07:54:42 51°14.152 2°55.411 18.3494 3.944344 29.217302 16.376635
2008-06-27 07:54:47 51°14.16 2°55.402 18.3513 3.935529 29.142997 16.306987
2008-06-27 07:54:52 51°14.168 2°55.393 18.3559 3.932211 29.113428 16.272162
2008-06-27 07:54:57 51°14.176 2°55.383 18.3621 3.928374 29.080157 16.306987
2008-06-27 07:55:02 51°14.184 2°55.373 18.3728 3.923086 29.034386 16.237338
2008-06-27 07:55:07 51°14.192 2°55.362 18.3849 3.923086 29.034386 16.237338
2008-06-27 07:55:12 51°14.201 2°55.351 18.3909 3.916553 28.976169 16.272162
2008-06-27 07:55:17 51°14.209 2°55.34 18.3928 3.908984 28.91001 16.063218
2008-06-27 07:55:22 51°14.217 2°55.328 18.3955 3.901207 28.842184 16.098042
2008-06-27 07:55:27 51°14.225 2°55.315 18.3978 3.888038 28.730095 16.028394
2008-06-27 07:55:32 51°14.233 2°55.302 18.4027 3.868131 28.561128 15.749802
2008-06-27 07:55:37 51°14.241 2°55.288 18.4015 3.868131 28.561128 15.749802
2008-06-27 07:55:42 51°14.25 2°55.274 18.4041 3.852994 28.430927 15.610505
2008-06-27 07:55:47 51°14.258 2°55.26 18.4019 3.837131 28.294915 15.471209
2008-06-27 07:55:52 51°14.266 2°55.245 18.3973 3.82469 28.188678 15.506033
2008-06-27 07:55:57 51°14.274 2°55.23 18.3898 3.814842 28.104815 15.297089
2008-06-27 07:56:02 51°14.282 2°55.215 18.3802 3.810487 28.066495 15.192617
2008-06-27 07:56:07 51°14.29 2°55.2 18.3625 3.810487 28.066495 15.192617
2008-06-27 07:56:12 51°14.298 2°55.185 18.3436 3.807481 28.039749 15.018497
2008-06-27 07:56:17 51°14.307 2°55.17 18.33 3.808207 28.044076 14.948848
2008-06-27 07:56:22 51°14.315 2°55.154 18.3035 3.810798 28.065279 15.053321
2008-06-27 07:56:27 51°14.324 2°55.137 18.2702 3.82355 28.171789 15.192617
2008-06-27 07:56:32 51°14.333 2°55.12 18.2607 3.83288 28.253053 15.436385
2008-06-27 07:56:37 51°14.342 2°55.103 18.2317 3.83288 28.253053 15.436385
2008-06-27 07:56:42 51°14.352 2°55.086 18.2093 3.862636 28.504013 15.645329
2008-06-27 07:56:47 51°14.362 2°55.067 18.185 3.889075 28.730353 15.889098
2008-06-27 07:56:52 51°14.373 2°55.05 18.1749 3.917072 28.974877 16.341811
2008-06-27 07:56:57 51°14.383 2°55.031 18.1375 3.95098 29.272004 16.864171
2008-06-27 07:57:02 51°14.395 2°55.014 18.1274 3.984788 29.56677 17.212412
2008-06-27 07:57:07 51°14.407 2°54.997 18.1011 3.984788 29.56677 17.212412
2008-06-27 07:57:12 51°14.42 2°54.981 18.0799 4.013724 29.821348 17.699949
2008-06-27 07:57:17 51°14.432 2°54.966 18.05 4.042869 30.081675 18.291958
2008-06-27 07:57:23 51°14.448 2°54.949 18.0544 4.071289 30.338357 18.779494
2008-06-27 07:57:27 51°14.459 2°54.938 18.0435 4.095251 30.55505 19.092911
2008-06-27 07:57:32 51°14.473 2°54.924 18.034 4.124505 30.819233 19.510799
2008-06-27 07:57:37 51°14.486 2°54.91 18.0349 4.124505 30.819233 19.510799
2008-06-27 07:57:42 51°14.5 2°54.896 18.0393 4.150129 31.049576 19.68492
2008-06-27 07:57:47 51°14.514 2°54.883 18.0458 4.173472 31.263141 20.416225
2008-06-27 07:57:52 51°14.528 2°54.87 18.0541 4.202835 31.529351 20.659993
2008-06-27 07:57:57 51°14.542 2°54.857 18.0865 4.218606 31.674283 21.286826
2008-06-27 07:58:02 51°14.555 2°54.843 18.0592 4.235623 31.824935 22.2619
2008-06-27 07:58:07 51°14.569 2°54.829 18.0687 4.235623 31.824935 22.2619
2008-06-27 07:58:12 51°14.583 2°54.815 18.0681 4.261876 32.052067 23.097677
2008-06-27 07:58:17 51°14.597 2°54.802 18.0789 4.290933 32.299339 23.828982
2008-06-27 07:58:22 51°14.611 2°54.788 18.0731 4.307537 32.437736 24.246871
2008-06-27 07:58:27 51°14.625 2°54.774 18.0732 4.328812 32.61111 24.490639
2008-06-27 07:58:32 51°14.639 2°54.761 18.0652 4.348013 32.768998 25.221944
2008-06-27 07:58:37 51°14.653 2°54.747 18.0698 4.348013 32.768998 25.221944
2008-06-27 07:58:42 51°14.667 2°54.734 18.0701 4.357873 32.850161 25.535361
2008-06-27 07:58:47 51°14.68 2°54.72 18.0617 4.375414 32.99482 26.022897
2008-06-27 07:58:52 51°14.694 2°54.706 18.0639 4.382783 33.0544 26.231842
2008-06-27 07:58:57 51°14.708 2°54.692 18.0593 4.388803 33.104533 25.883601
2008-06-27 07:59:02 51°14.722 2°54.678 18.0522 4.411016 33.293909 26.022897
2008-06-27 07:59:07 51°14.735 2°54.664 18.0502 4.411016 33.293909 26.022897
2008-06-27 07:59:12 51°14.749 2°54.65 18.0473 4.416103 33.336854 26.30149
2008-06-27 07:59:17 51°14.763 2°54.636 18.0447 4.428352 33.441604 26.440786
2008-06-27 07:59:22 51°14.777 2°54.621 18.0381 4.430739 33.462425 26.266666
2008-06-27 07:59:27 51°14.791 2°54.607 18.0349 4.438525 33.530816 26.371138
2008-06-27 07:59:32 51°14.805 2°54.594 18.0244 4.441432 33.559289 26.440786
2008-06-27 07:59:37 51°14.819 2°54.58 18.0197 4.441432 33.559289 26.440786
2008-06-27 07:59:42 51°14.832 2°54.566 18.014 4.448906 33.6264 26.47561
2008-06-27 07:59:47 51°14.846 2°54.552 18.0115 4.450775 33.645467 26.266666
2008-06-27 07:59:52 51°14.86 2°54.539 18.0084 4.453163 33.66893 26.614906
2008-06-27 07:59:57 51°14.874 2°54.525 18.0009 4.455239 33.691725 26.30149
2008-06-27 08:00:02 51°14.888 2°54.512 17.9942 4.458665 33.725299 25.988073
2008-06-27 08:00:07 51°14.902 2°54.498 17.9921 4.458665 33.725299 25.988073
2008-06-27 08:00:12 51°14.916 2°54.486 17.9891 4.46043 33.744168 25.674657
2008-06-27 08:00:17 51°14.931 2°54.474 17.9801 4.460222 33.748304 25.883601
2008-06-27 08:00:22 51°14.945 2°54.461 17.9725 4.460118 33.751355 25.430889
2008-06-27 08:00:27 51°14.959 2°54.449 17.9722 4.461676 33.769788 24.83888
2008-06-27 08:00:32 51°14.974 2°54.436 17.9636 4.461572 33.774155 24.769232
2008-06-27 08:00:37 51°14.988 2°54.424 17.9568 4.461572 33.774155 24.769232
2008-06-27 08:00:42 51°15.002 2°54.411 17.951 4.467801 33.831533 24.455815
2008-06-27 08:00:47 51°15.016 2°54.398 17.9543 4.471019 33.863416 24.525463
2008-06-27 08:00:52 51°15.031 2°54.386 17.9425 4.471539 33.874397 24.420991
2008-06-27 08:00:57 51°15.045 2°54.373 17.9357 4.472473 33.886929 24.490639
2008-06-27 08:01:02 51°15.059 2°54.361 17.9284 4.472265 33.890438 24.003102
2008-06-27 08:01:07 51°15.073 2°54.348 17.9161 4.472265 33.890438 24.003102
2008-06-27 08:01:12 51°15.087 2°54.335 17.9114 4.472577 33.898351 23.620038
2008-06-27 08:01:17 51°15.101 2°54.322 17.9029 4.471435 33.893935 22.993205
2008-06-27 08:01:22 51°15.115 2°54.309 17.8996 4.469774 33.884454 22.366372
2008-06-27 08:01:27 51°15.129 2°54.297 17.8834 4.468425 33.878932 21.844011
2008-06-27 08:01:32 51°15.144 2°54.284 17.8727 4.472889 33.924739 21.286826
2008-06-27 08:01:37 51°15.158 2°54.271 17.8549 4.472889 33.924739 21.286826
2008-06-27 08:01:42 51°15.172 2°54.258 17.8449 4.474031 33.94104 20.799289
2008-06-27 08:01:47 51°15.186 2°54.246 17.8271 4.473927 33.948087 20.416225
2008-06-27 08:01:52 51°15.2 2°54.232 17.8101 4.473512 33.950509 19.789392
2008-06-27 08:01:57 51°15.215 2°54.22 17.7887 4.473408 33.957562 19.162559
2008-06-27 08:02:02 51°15.229 2°54.208 17.7707 4.473512 33.968369 18.535726
2008-06-27 08:02:07 51°15.243 2°54.195 17.751 4.473512 33.968369 18.535726
2008-06-27 08:02:12 51°15.257 2°54.182 17.7326 4.473409 33.981392 18.083013
2008-06-27 08:02:17 51°15.271 2°54.17 17.7017 4.47289 33.989568 17.525828
2008-06-27 08:02:22 51°15.286 2°54.157 17.6835 4.472164 33.997974 16.794523
2008-06-27 08:02:27 51°15.3 2°54.144 17.6721 4.471022 34.00219 16.655227
2008-06-27 08:02:32 51°15.314 2°54.131 17.6493 4.470088 34.010836 16.341811
2008-06-27 08:02:37 51°15.328 2°54.118 17.6244 4.470088 34.010836 16.341811
2008-06-27 08:02:42 51°15.343 2°54.105 17.6117 4.469154 34.018828 16.132866
2008-06-27 08:02:47 51°15.357 2°54.092 17.5985 4.467804 34.022623 16.028394
2008-06-27 08:02:52 51°15.371 2°54.079 17.6031 4.463029 34.004529 15.784626
2008-06-27 08:02:57 51°15.385 2°54.066 17.5804 4.462095 34.020531 15.645329
2008-06-27 08:03:02 51°15.399 2°54.053 17.5637 4.46656 34.075988 15.366737
2008-06-27 08:03:07 51°15.413 2°54.039 17.5615 4.46656 34.075988 15.366737
2008-06-27 08:03:12 51°15.428 2°54.026 17.5434 4.465626 34.084711 15.366737
2008-06-27 08:03:17 51°15.441 2°54.012 17.5355 4.464069 34.090795 15.366737
2008-06-27 08:03:22 51°15.456 2°54 17.5289 4.462616 34.094429 15.506033
2008-06-27 08:03:27 51°15.47 2°53.987 17.5179 4.46137 34.095826 14.948848
2008-06-27 08:03:32 51°15.484 2°53.973 17.516 4.460228 34.100124 15.192617
2008-06-27 08:03:37 51°15.499 2°53.96 17.5182 4.460228 34.100124 15.192617
2008-06-27 08:03:42 51°15.513 2°53.947 17.5072 4.459087 34.101075 15.506033
2008-06-27 08:03:47 51°15.527 2°53.934 17.5049 4.458152 34.105146 16.132866
2008-06-27 08:03:52 51°15.541 2°53.921 17.4965 4.457737 34.111654 17.073116
2008-06-27 08:03:57 51°15.555 2°53.907 17.4926 4.456907 34.114609 17.560652
2008-06-27 08:04:02 51°15.57 2°53.894 17.4944 4.456077 34.114208 17.978541
2008-06-27 08:04:07 51°15.584 2°53.88 17.4916 4.456077 34.114208 17.978541
2008-06-27 08:04:12 51°15.598 2°53.867 17.488 4.455142 34.112917 18.291958
2008-06-27 08:04:17 51°15.612 2°53.854 17.4888 4.454831 34.115622 18.326782
2008-06-27 08:04:22 51°15.627 2°53.841 17.4835 4.454208 34.115658 18.883966
2008-06-27 08:04:27 51°15.641 2°53.829 17.4782 4.453793 34.117475 19.406327
2008-06-27 08:04:32 51°15.655 2°53.816 17.4715 4.453274 34.116385 19.336679
2008-06-27 08:04:37 51°15.67 2°53.803 17.4737 4.453274 34.116385 19.336679
2008-06-27 08:04:43 51°15.687 2°53.788 17.4702 4.452859 34.116858 18.814318
2008-06-27 08:04:47 51°15.698 2°53.777 17.4597 4.452548 34.117549 18.222309
2008-06-27 08:04:52 51°15.713 2°53.764 17.4567 4.452029 34.115787 18.083013
2008-06-27 08:04:57 51°15.727 2°53.751 17.4538 4.451821 34.117368 18.222309
2008-06-27 08:05:02 51°15.741 2°53.737 17.4539 4.451613 34.119623 18.326782
2008-06-27 08:05:07 51°15.756 2°53.724 17.4529 4.451613 34.119623 18.326782
2008-06-27 08:05:12 51°15.77 2°53.711 17.4496 4.451198 34.118079 18.222309
2008-06-27 08:05:17 51°15.784 2°53.698 17.4514 4.450887 34.119443 18.222309
2008-06-27 08:05:22 51°15.798 2°53.685 17.4538 4.450472 34.119918 18.083013
2008-06-27 08:05:27 51°15.812 2°53.671 17.4538 4.45016 34.121956 18.083013
2008-06-27 08:05:32 51°15.826 2°53.658 17.4568 4.449641 34.12154 18.222309
2008-06-27 08:05:37 51°15.84 2°53.645 17.4576 4.449641 34.12154 18.222309
2008-06-27 08:05:42 51°15.855 2°53.631 17.4571 4.449019 34.118886 17.943717
2008-06-27 08:05:47 51°15.869 2°53.618 17.458 4.4485 34.115777 16.898995
2008-06-27 08:05:52 51°15.883 2°53.606 17.4604 4.448292 34.113995 16.933819
2008-06-27 08:05:57 51°15.897 2°53.592 17.4604 4.448084 34.112213 17.10794
2008-06-27 08:06:02 51°15.912 2°53.579 17.4632 4.447877 34.109757 16.655227
2008-06-27 08:06:07 51°15.926 2°53.566 17.4642 4.447877 34.109757 16.655227
2008-06-27 08:06:12 51°15.941 2°53.554 17.4643 4.447565 34.106411 16.481107
2008-06-27 08:06:17 51°15.955 2°53.54 17.4659 4.446942 34.101064 16.515931
2008-06-27 08:06:22 51°15.969 2°53.528 17.4607 4.446942 34.100392 16.585579
2008-06-27 08:06:27 51°15.984 2°53.515 17.4561 4.446631 34.097046 16.690051
2008-06-27 08:06:32 51°15.998 2°53.502 17.4496 4.446112 34.091245 17.142764
2008-06-27 08:06:37 51°16.013 2°53.489 17.4472 4.446112 34.091245 17.142764
2008-06-27 08:06:42 51°16.027 2°53.477 17.4383 4.446423 34.093246 16.898995
2008-06-27 08:06:47 51°16.042 2°53.464 17.4364 4.446112 34.089228 16.446283
2008-06-27 08:06:52 51°16.057 2°53.452 17.4342 4.446319 34.091009 16.306987
2008-06-27 08:06:57 51°16.071 2°53.439 17.4282 4.446527 34.094137 15.714978
2008-06-27 08:07:02 51°16.086 2°53.427 17.4234 4.446423 34.096609 15.297089
2008-06-27 08:07:07 51°16.1 2°53.414 17.4204 4.446423 34.096609 15.297089
2008-06-27 08:07:12 51°16.114 2°53.401 17.4207 4.446631 34.102429 14.600608
2008-06-27 08:07:17 51°16.129 2°53.388 17.4152 4.44632 34.10514 14.356839
2008-06-27 08:07:22 51°16.143 2°53.376 17.4144 4.446216 34.107614 14.008599
2008-06-27 08:07:27 51°16.157 2°53.364 17.4115 4.444763 34.099174 13.451414
2008-06-27 08:07:32 51°16.171 2°53.35 17.4041 4.442167 34.080254 13.06835
2008-06-27 08:07:37 51°16.185 2°53.337 17.407 4.442167 34.080254 13.06835
2008-06-27 08:07:42 51°16.199 2°53.324 17.3994 4.442894 34.090533 12.859405
2008-06-27 08:07:47 51°16.214 2°53.311 17.3989 4.43978 34.067824 12.441517
2008-06-27 08:07:52 51°16.227 2°53.298 17.3943 4.435628 34.034182 12.093276
2008-06-27 08:07:57 51°16.242 2°53.285 17.3974 4.444244 34.112229 11.77986
2008-06-27 08:08:02 51°16.256 2°53.271 17.3992 4.444971 34.121168 11.153027
2008-06-27 08:08:07 51°16.27 2°53.258 17.3903 4.444971 34.121168 11.153027
2008-06-27 08:08:12 51°16.284 2°53.245 17.3906 4.444763 34.122081 10.735138
2008-06-27 08:08:17 51°16.298 2°53.232 17.3878 4.443206 34.112745 10.386897
2008-06-27 08:08:22 51°16.312 2°53.219 17.3858 4.444244 34.125038 10.212777
2008-06-27 08:08:27 51°16.326 2°53.206 17.3889 4.444036 34.124602 10.143129
2008-06-27 08:08:32 51°16.341 2°53.193 17.3918 4.443414 34.120598 9.864537
2008-06-27 08:08:37 51°16.354 2°53.181 17.3902 4.443414 34.120598 9.864537
2008-06-27 08:08:42 51°16.368 2°53.169 17.3918 4.444452 34.131545 9.690416
2008-06-27 08:08:47 51°16.383 2°53.157 17.3918 4.442168 34.114611 9.446648
2008-06-27 08:08:52 51°16.397 2°53.144 17.3915 4.442999 34.123774 9.098407
2008-06-27 08:08:57 51°16.411 2°53.132 17.3951 4.442583 34.121553 8.993935
2008-06-27 08:09:02 51°16.426 2°53.119 17.3954 4.441234 34.109277 8.924287
2008-06-27 08:09:07 51°16.44 2°53.107 17.3933 4.441234 34.109277 8.924287
2008-06-27 08:09:12 51°16.454 2°53.094 17.398 4.442583 34.120204 8.819815
2008-06-27 08:09:17 51°16.468 2°53.08 17.401 4.417566 33.904571 8.784991
2008-06-27 08:09:22 51°16.482 2°53.067 17.4034 4.444763 34.137596 8.576047
2008-06-27 08:09:27 51°16.497 2°53.054 17.4044 4.444659 34.136029 8.471574
2008-06-27 08:09:32 51°16.511 2°53.04 17.4061 4.445075 34.139598 8.227806
2008-06-27 08:09:37 51°16.525 2°53.027 17.4073 4.445075 34.139598 8.227806
2008-06-27 08:09:42 51°16.539 2°53.014 17.4048 4.443518 34.126212 8.08851
2008-06-27 08:09:47 51°16.553 2°53.001 17.4037 4.445594 34.142711 7.984038
2008-06-27 08:09:52 51°16.568 2°52.988 17.4029 4.445282 34.138009 7.91439
2008-06-27 08:09:57 51°16.582 2°52.975 17.4012 4.44632 34.144233 7.740269
2008-06-27 08:10:02 51°16.597 2°52.963 17.3924 4.446943 34.148912 7.670621
2008-06-27 08:10:07 51°16.611 2°52.951 17.3888 4.446943 34.148912 7.670621
2008-06-27 08:10:12 51°16.626 2°52.94 17.39 4.447462 34.152024 7.600973
2008-06-27 08:10:17 51°16.641 2°52.928 17.3814 4.447981 34.15581 7.461677
2008-06-27 08:10:22 51°16.656 2°52.917 17.3738 4.4485 34.160947 7.322381
2008-06-27 08:10:27 51°16.672 2°52.906 17.369 4.448293 34.159838 7.252733
2008-06-27 08:10:32 51°16.687 2°52.895 17.3599 4.449227 34.169895 7.14826
2008-06-27 08:10:37 51°16.702 2°52.884 17.3553 4.449227 34.169895 7.14826
2008-06-27 08:10:42 51°16.717 2°52.873 17.3495 4.449435 34.175058 7.043788
2008-06-27 08:10:47 51°16.732 2°52.862 17.3461 4.449227 34.176651 6.97414
2008-06-27 08:10:52 51°16.747 2°52.851 17.3443 4.449746 34.185845 6.904492
2008-06-27 08:10:57 51°16.763 2°52.841 17.3356 4.449746 34.192607 6.97414
2008-06-27 08:11:02 51°16.778 2°52.831 17.3274 4.449643 34.198478 6.869668
2008-06-27 08:11:07 51°16.793 2°52.821 17.3304 4.449643 34.198478 6.869668
2008-06-27 08:11:12 51°16.808 2°52.81 17.3265 4.449124 34.198748 6.834844
2008-06-27 08:11:17 51°16.823 2°52.8 17.3235 4.449435 34.206843 6.730372
2008-06-27 08:11:23 51°16.841 2°52.787 17.3205 4.449124 34.209579 6.660724
2008-06-27 08:11:27 51°16.854 2°52.779 17.3221 4.449124 34.213643 6.521427
2008-06-27 08:11:32 51°16.869 2°52.768 17.3257 4.448916 34.216597 6.451779
2008-06-27 08:11:37 51°16.884 2°52.758 17.3248 4.448916 34.216597 6.451779
2008-06-27 08:11:42 51°16.899 2°52.747 17.3292 4.44819 34.214406 6.347307
2008-06-27 08:11:47 51°16.914 2°52.736 17.3311 4.448398 34.219582 6.173187
2008-06-27 08:11:52 51°16.929 2°52.725 17.3345 4.448294 34.221399 6.068715
2008-06-27 08:11:57 51°16.944 2°52.715 17.3338 4.447879 34.220534 5.929418
2008-06-27 08:12:02 51°16.96 2°52.704 17.3407 4.447463 34.216958 5.790122
2008-06-27 08:12:07 51°16.975 2°52.695 17.3367 4.447463 34.216958 5.790122
2008-06-27 08:12:12 51°16.991 2°52.685 17.3412 4.447359 34.216064 5.68565
2008-06-27 08:12:17 51°17.006 2°52.674 17.3442 4.447463 34.21628 5.616002
2008-06-27 08:12:22 51°17.021 2°52.665 17.347 4.446633 34.207095 5.441882
2008-06-27 08:12:27 51°17.037 2°52.655 17.351 4.447982 34.217361 5.407058
2008-06-27 08:12:32 51°17.052 2°52.646 17.3551 4.445802 34.19588 5.33741
2008-06-27 08:12:37 51°17.067 2°52.635 17.3577 4.445802 34.19588 5.33741
2008-06-27 08:12:42 51°17.083 2°52.625 17.3622 4.447671 34.210614 5.267761
2008-06-27 08:12:47 51°17.098 2°52.615 17.3664 4.447775 34.209475 5.267761
2008-06-27 08:12:52 51°17.114 2°52.606 17.3696 4.447359 34.203868 5.267761
2008-06-27 08:12:57 51°17.129 2°52.597 17.3748 4.447982 34.207199 5.267761
2008-06-27 08:13:02 51°17.144 2°52.587 17.3785 4.447671 34.201132 5.232937
2008-06-27 08:13:07 51°17.16 2°52.579 17.3813 4.447671 34.201132 5.232937
2008-06-27 08:13:12 51°17.176 2°52.57 17.3876 4.44819 34.202214 5.302586
2008-06-27 08:13:17 51°17.192 2°52.562 17.39 4.448916 34.204407 5.372234
2008-06-27 08:13:23 51°17.211 2°52.551 17.398 4.448709 34.199912 5.33741
2008-06-27 08:13:27 51°17.224 2°52.546 17.4003 4.448501 34.194065 5.302586
2008-06-27 08:13:32 51°17.24 2°52.538 17.4018 4.449227 34.196258 5.407058
2008-06-27 08:13:37 51°17.256 2°52.533 17.4066 4.449227 34.196258 5.407058
2008-06-27 08:13:42 51°17.273 2°52.527 17.4087 4.447359 34.176801 5.407058
2008-06-27 08:13:47 51°17.289 2°52.524 17.4126 4.449954 34.194393 5.372234
2008-06-27 08:13:52 51°17.306 2°52.52 17.415 4.450058 34.190552 5.476706
2008-06-27 08:13:57 51°17.322 2°52.518 17.4177 4.450161 34.187388 5.476706
2008-06-27 08:14:02 51°17.339 2°52.517 17.4172 4.450369 34.185118 5.476706
2008-06-27 08:14:07 51°17.357 2°52.516 17.4185 4.450369 34.185118 5.476706
2008-06-27 08:14:12 51°17.374 2°52.517 17.4207 4.450265 34.181523 5.441882
2008-06-27 08:14:17 51°17.391 2°52.518 17.4221 4.448293 34.161188 5.476706
2008-06-27 08:14:22 51°17.408 2°52.52 17.4259 4.44985 34.171197 5.407058
2008-06-27 08:14:27 51°17.425 2°52.521 17.4267 4.449746 34.167604 5.51153
2008-06-27 08:14:32 51°17.442 2°52.526 17.4277 4.447358 34.145058 5.441882
2008-06-27 08:14:37 51°17.459 2°52.525 17.4287 4.447358 34.145058 5.441882
2008-06-27 08:14:42 51°17.476 2°52.53 17.4321 4.448915 34.156416 5.51153
2008-06-27 08:14:47 51°17.493 2°52.53 17.4295 4.447462 34.142577 5.51153
2008-06-27 08:14:52 51°17.51 2°52.532 17.4318 4.445074 34.119364 5.616002
2008-06-27 08:14:57 51°17.526 2°52.535 17.4294 4.446943 34.133396 5.616002
2008-06-27 08:15:02 51°17.544 2°52.535 17.43 4.44632 34.126696 5.68565
2008-06-27 08:15:07 51°17.561 2°52.536 17.4295 4.44632 34.126696 5.68565
2008-06-27 08:15:12 51°17.578 2°52.536 17.4276 4.446009 34.122673 5.51153
2008-06-27 08:15:17 51°17.595 2°52.539 17.429 4.445801 34.119541 5.476706
2008-06-27 08:15:22 51°17.612 2°52.537 17.4272 4.44497 34.112407 5.476706
2008-06-27 08:15:27 51°17.629 2°52.539 17.4251 4.443517 34.099249 5.441882
2008-06-27 08:15:32 51°17.646 2°52.539 17.4247 4.444036 34.103708 5.407058
2008-06-27 08:15:37 51°17.663 2°52.539 17.422 4.444036 34.103708 5.407058
2008-06-27 08:15:42 51°17.68 2°52.541 17.423 4.443621 34.100141 5.232937
2008-06-27 08:15:47 51°17.697 2°52.539 17.4215 4.442064 34.08744 5.128465
2008-06-27 08:15:52 51°17.715 2°52.542 17.4221 4.44196 34.086548 5.023993
2008-06-27 08:15:57 51°17.732 2°52.541 17.4189 4.441649 34.085219 4.989169
2008-06-27 08:16:02 51°17.749 2°52.544 17.4235 4.440091 34.072518 5.058817
2008-06-27 08:16:07 51°17.766 2°52.542 17.4141 4.440091 34.072518 5.058817
2008-06-27 08:16:12 51°17.783 2°52.544 17.4126 4.441026 34.081216 5.023993
2008-06-27 08:16:17 51°17.8 2°52.543 17.4084 4.44061 34.078995 5.023993
2008-06-27 08:16:22 51°17.817 2°52.544 17.4088 4.440195 34.076102 5.023993
2008-06-27 08:16:27 51°17.834 2°52.545 17.4057 4.439988 34.074992 5.128465
2008-06-27 08:16:32 51°17.851 2°52.544 17.4026 4.439676 34.073663 5.163289
2008-06-27 08:16:37 51°17.869 2°52.544 17.3967 4.439676 34.073663 5.163289
2008-06-27 08:16:42 51°17.886 2°52.542 17.3966 4.439261 34.071442 5.093641
2008-06-27 08:16:47 51°17.902 2°52.542 17.393 4.438742 34.069002 5.058817
2008-06-27 08:16:52 51°17.919 2°52.54 17.3955 4.438638 34.070803 5.058817
2008-06-27 08:16:57 51°17.936 2°52.539 17.3885 4.438846 34.074607 5.058817
2008-06-27 08:17:02 51°17.954 2°52.536 17.3832 4.438638 34.075517 4.989169
2008-06-27 08:17:07 51°17.971 2°52.535 17.3801 4.438638 34.075517 4.989169
2008-06-27 08:17:12 51°17.988 2°52.533 17.3773 4.438327 34.076881 5.023993
2008-06-27 08:17:17 51°18.005 2°52.532 17.3743 4.438016 34.075552 4.954345
2008-06-27 08:17:22 51°18.023 2°52.529 17.373 4.438016 34.07892 4.954345
2008-06-27 08:17:27 51°18.04 2°52.529 17.3692 4.437808 34.079157 4.884697
2008-06-27 08:17:32 51°18.057 2°52.526 17.367 4.437185 34.076498 4.849873
2008-06-27 08:17:37 51°18.074 2°52.526 17.3701 4.437185 34.076498 4.849873
2008-06-27 08:17:42 51°18.092 2°52.523 17.3644 4.437601 34.083437 4.849873
2008-06-27 08:17:47 51°18.109 2°52.523 17.3656 4.437601 34.086807 4.815049
2008-06-27 08:17:52 51°18.126 2°52.519 17.3571 4.437497 34.088611 4.849873
2008-06-27 08:17:57 51°18.143 2°52.518 17.3564 4.437289 34.090198 4.884697
2008-06-27 08:18:02 51°18.16 2°52.516 17.3537 4.437289 34.092895 4.954345
2008-06-27 08:18:07 51°18.177 2°52.514 17.3556 4.437289 34.092895 4.954345
2008-06-27 08:18:12 51°18.195 2°52.513 17.3481 4.437289 34.094244 5.093641
2008-06-27 08:18:17 51°18.212 2°52.511 17.3507 4.437289 34.096268 5.198113
2008-06-27 08:18:22 51°18.229 2°52.509 17.3529 4.437393 34.099185 5.267761
2008-06-27 08:18:27 51°18.246 2°52.509 17.3448 4.437912 34.106348 5.302586
2008-06-27 08:18:32 51°18.264 2°52.506 17.345 4.438328 34.11262 5.33741
2008-06-27 08:18:37 51°18.281 2°52.506 17.3487 4.438328 34.11262 5.33741
2008-06-27 08:18:42 51°18.298 2°52.504 17.3474 4.438743 34.118893 5.441882
2008-06-27 08:18:47 51°18.316 2°52.503 17.3506 4.439158 34.123817 5.51153
2008-06-27 08:18:52 51°18.333 2°52.502 17.3441 4.439366 34.126279 5.51153
2008-06-27 08:18:57 51°18.351 2°52.5 17.3427 4.439573 34.129416 5.546354
2008-06-27 08:19:02 51°18.368 2°52.502 17.3405 4.440092 34.135234 5.581178
2008-06-27 08:19:07 51°18.384 2°52.501 17.3417 4.440092 34.135234 5.581178
2008-06-27 08:19:12 51°18.402 2°52.502 17.3333 4.440508 34.139483 5.616002
2008-06-27 08:19:17 51°18.419 2°52.499 17.3348 4.441027 34.14395 5.581178
2008-06-27 08:19:22 51°18.436 2°52.499 17.328 4.441234 34.146412 5.581178
2008-06-27 08:19:27 51°18.453 2°52.497 17.3244 4.44165 34.151338 5.546354
2008-06-27 08:19:32 51°18.471 2°52.496 17.3235 4.442065 34.156264 5.51153
2008-06-27 08:19:37 51°18.488 2°52.495 17.3243 4.442065 34.156264 5.51153
2008-06-27 08:19:42 51°18.505 2°52.494 17.3208 4.44248 34.161867 5.33741
2008-06-27 08:19:47 51°18.522 2°52.494 17.3173 4.443103 34.169935 5.372234
2008-06-27 08:19:52 51°18.54 2°52.492 17.3172 4.443415 34.176 5.441882
2008-06-27 08:19:57 51°18.557 2°52.491 17.3197 4.44383 34.182283 5.51153
2008-06-27 08:20:02 51°18.574 2°52.491 17.3185 4.444141 34.186995 5.894594
2008-06-27 08:20:07 51°18.592 2°52.489 17.3165 4.444141 34.186995 5.894594
2008-06-27 08:20:12 51°18.609 2°52.489 17.3123 4.444349 34.191492 6.208011
2008-06-27 08:20:17 51°18.626 2°52.487 17.3094 4.444557 34.195313 6.556251
2008-06-27 08:20:22 51°18.643 2°52.489 17.3086 4.444764 34.199133 6.904492
2008-06-27 08:20:27 51°18.661 2°52.487 17.3047 4.444868 34.200705 7.14826
2008-06-27 08:20:32 51°18.678 2°52.49 17.3017 4.445076 34.203849 7.183084
2008-06-27 08:20:37 51°18.695 2°52.491 17.296 4.445076 34.203849 7.183084
2008-06-27 08:20:42 51°18.712 2°52.494 17.2939 4.445387 34.207887 7.14826
2008-06-27 08:20:47 51°18.729 2°52.497 17.2959 4.445491 34.210137 6.939316
2008-06-27 08:20:52 51°18.747 2°52.499 17.2884 4.445491 34.212171 6.695548
2008-06-27 08:20:57 51°18.764 2°52.503 17.2825 4.445595 34.215777 6.556251
2008-06-27 08:21:02 51°18.781 2°52.505 17.2828 4.445491 34.217596 6.451779
2008-06-27 08:21:07 51°18.798 2°52.51 17.2831 4.445491 34.217596 6.451779
2008-06-27 08:21:12 51°18.816 2°52.512 17.2699 4.445491 34.220987 6.312483
2008-06-27 08:21:17 51°18.833 2°52.515 17.2664 4.445284 34.221912 6.382131
2008-06-27 08:21:22 51°18.85 2°52.518 17.2588 4.445076 34.222836 6.451779
2008-06-27 08:21:27 51°18.867 2°52.52 17.2651 4.444972 34.225335 6.660724
2008-06-27 08:21:32 51°18.885 2°52.522 17.2562 4.444661 34.226044 6.97414
2008-06-27 08:21:37 51°18.902 2°52.524 17.2568 4.444661 34.226044 6.97414
2008-06-27 08:21:42 51°18.92 2°52.527 17.2574 4.444246 34.225858 6.939316
2008-06-27 08:21:47 51°18.937 2°52.529 17.2591 4.443934 34.227926 6.869668
2008-06-27 08:21:52 51°18.954 2°52.532 17.2632 4.443519 34.229099 6.80002
2008-06-27 08:21:57 51°18.971 2°52.533 17.2616 4.443104 34.228235 6.6259
2008-06-27 08:22:02 51°18.988 2°52.537 17.2705 4.442793 34.228266 6.416955
2008-06-27 08:22:07 51°19.005 2°52.539 17.2765 4.442793 34.228266 6.416955
2008-06-27 08:22:12 51°19.023 2°52.54 17.2781 4.442481 34.228297 6.138363
2008-06-27 08:22:17 51°19.04 2°52.543 17.2806 4.442378 34.228761 6.033891
2008-06-27 08:22:22 51°19.057 2°52.545 17.2888 4.442274 34.228545 6.103539
2008-06-27 08:22:27 51°19.074 2°52.548 17.2908 4.442274 34.227865 6.277659
2008-06-27 08:22:32 51°19.091 2°52.551 17.2945 4.442377 34.226044 6.591076
2008-06-27 08:22:37 51°19.108 2°52.554 17.2967 4.442377 34.226044 6.591076
2008-06-27 08:22:42 51°19.125 2°52.557 17.3011 4.442481 34.222864 6.97414
2008-06-27 08:22:47 51°19.142 2°52.559 17.3047 4.442689 34.221938 7.357205
2008-06-27 08:22:52 51°19.158 2°52.561 17.3137 4.443 34.219871 7.705445
2008-06-27 08:22:57 51°19.174 2°52.564 17.3176 4.443104 34.217372 7.809917
2008-06-27 08:23:02 51°19.19 2°52.567 17.326 4.443104 34.213979 7.91439
2008-06-27 08:23:07 51°19.204 2°52.569 17.3322 4.443104 34.213979 7.91439
2008-06-27 08:23:12 51°19.218 2°52.571 17.3424 4.443 34.209692 8.018862
2008-06-27 08:23:17 51°19.23 2°52.573 17.344 4.442585 34.202721 7.775093
2008-06-27 08:23:22 51°19.242 2°52.572 17.3513 4.441443 34.188136 7.531325
2008-06-27 08:23:27 51°19.252 2°52.569 17.3549 4.439989 34.170872 7.392029
2008-06-27 08:23:32 51°19.261 2°52.566 17.3604 4.438224 34.149578 7.14826
2008-06-27 08:23:37 51°19.27 2°52.562 17.362 4.438224 34.149578 7.14826
2008-06-27 08:23:42 51°19.277 2°52.557 17.3652 4.435421 34.118679 7.252733
2008-06-27 08:23:47 51°19.284 2°52.552 17.3661 4.432515 34.086902 7.287557
2008-06-27 08:23:52 51°19.289 2°52.545 17.367 4.430127 34.060957 7.461677
2008-06-27 08:23:57 51°19.294 2°52.539 17.3699 4.426909 34.028551 7.705445
2008-06-27 08:24:02 51°19.297 2°52.532 17.3719 4.424729 34.005086 7.705445
2008-06-27 08:24:07 51°19.3 2°52.525 17.3711 4.424729 34.005086 7.705445
2008-06-27 08:24:12 51°19.302 2°52.518 17.3733 4.422549 33.982302 7.775093
2008-06-27 08:24:17 51°19.304 2°52.511 17.3752 4.421199 33.967337 7.809917
2008-06-27 08:24:22 51°19.305 2°52.504 17.3748 4.419539 33.950371 7.809917
2008-06-27 08:24:27 51°19.305 2°52.497 17.3766 4.41767 33.932295 7.91439
2008-06-27 08:24:32 51°19.306 2°52.489 17.3759 4.416217 33.917791 7.984038
2008-06-27 08:24:37 51°19.305 2°52.482 17.3752 4.416217 33.917791 7.984038
2008-06-27 08:24:42 51°19.305 2°52.475 17.3765 4.414763 33.90396 8.018862
2008-06-27 08:24:47 51°19.304 2°52.467 17.3776 4.413725 33.893699 8.053686
2008-06-27 08:24:52 51°19.303 2°52.459 17.3778 4.412791 33.884331 8.227806
2008-06-27 08:24:57 51°19.302 2°52.452 17.3763 4.411649 33.873181 8.227806
2008-06-27 08:25:02 51°19.301 2°52.444 17.377 4.410923 33.866268 8.401926
2008-06-27 08:25:07 51°19.301 2°52.436 17.3812 4.410923 33.866268 8.401926
2008-06-27 08:25:12 51°19.3 2°52.427 17.3818 4.409988 33.857573 8.506398
2008-06-27 08:25:17 51°19.301 2°52.419 17.3801 4.409366 33.851553 8.715343
2008-06-27 08:25:22 51°19.301 2°52.411 17.3793 4.408847 33.845756 8.959111
2008-06-27 08:25:27 51°19.302 2°52.403 17.3799 4.408016 33.837954 8.959111
2008-06-27 08:25:32 51°19.304 2°52.396 17.3788 4.407289 33.831713 9.063583
2008-06-27 08:25:37 51°19.305 2°52.388 17.3775 4.407289 33.831713 9.063583
2008-06-27 08:25:42 51°19.306 2°52.38 17.3781 4.406874 33.827478 8.924287
2008-06-27 08:25:47 51°19.308 2°52.371 17.3782 4.406251 33.820792 8.993935
2008-06-27 08:25:52 51°19.31 2°52.363 17.3791 4.405525 33.814552 9.133231
2008-06-27 08:25:57 51°19.311 2°52.355 17.3805 4.404902 33.809203 9.20288
2008-06-27 08:26:02 51°19.313 2°52.347 17.3808 4.404383 33.804746 9.272528
2008-06-27 08:26:07 51°19.314 2°52.339 17.3795 4.404383 33.804746 9.272528
2008-06-27 08:26:12 51°19.315 2°52.331 17.3794 4.40376 33.800067 9.237704
2008-06-27 08:26:17 51°19.315 2°52.323 17.377 4.403137 33.794719 9.307352
2008-06-27 08:26:22 51°19.315 2°52.315 17.3765 4.402722 33.791153 9.272528
2008-06-27 08:26:27 51°19.314 2°52.307 17.3786 4.402515 33.788702 9.411824
2008-06-27 08:26:32 51°19.313 2°52.299 17.3788 4.401996 33.784246 9.72524
2008-06-27 08:26:37 51°19.312 2°52.291 17.382 4.401996 33.784246 9.72524
2008-06-27 08:26:42 51°19.311 2°52.284 17.378 4.395145 33.726096 9.829713
2008-06-27 08:26:47 51°19.31 2°52.276 17.3806 4.394003 33.716295 9.899361
2008-06-27 08:26:52 51°19.309 2°52.269 17.3816 4.401165 33.778452 10.073481
2008-06-27 08:26:57 51°19.309 2°52.262 17.3787 4.401061 33.77756 10.073481
2008-06-27 08:27:03 51°19.309 2°52.254 17.3777 4.40075 33.774887 9.934185
2008-06-27 08:27:07 51°19.309 2°52.249 17.3759 4.40075 33.774887 9.934185
2008-06-27 08:27:12 51°19.309 2°52.244 17.3741 4.400646 33.773327 9.969009
2008-06-27 08:27:17 51°19.309 2°52.239 17.3758 4.400439 33.770877 9.864537
2008-06-27 08:27:22 51°19.309 2°52.234 17.3796 4.400335 33.769318 9.864537
2008-06-27 08:27:27 51°19.309 2°52.229 17.3745 4.400231 33.767759 9.864537
2008-06-27 08:27:32 51°19.309 2°52.225 17.3773 4.399816 33.76553 9.794888
2008-06-27 08:27:37 51°19.309 2°52.221 17.3736 4.399816 33.76553 9.794888
2008-06-27 08:27:42 51°19.309 2°52.218 17.3718 4.399401 33.7633 9.934185
2008-06-27 08:27:47 51°19.31 2°52.214 17.377 4.398985 33.760403 10.003833
2008-06-27 08:27:52 51°19.31 2°52.211 17.3735 4.398882 33.759512 10.003833
2008-06-27 08:27:57 51°19.311 2°52.208 17.3764 4.398674 33.757729 9.899361
2008-06-27 08:28:02 51°19.311 2°52.205 17.3737 4.398466 33.755947 10.003833
2008-06-27 08:28:07 51°19.311 2°52.203 17.3733 4.398466 33.755947 10.003833
2008-06-27 08:28:12 51°19.312 2°52.2 17.373 4.396183 33.737676 10.038657
2008-06-27 08:28:17 51°19.312 2°52.199 17.3725 4.398051 33.753717 10.317249
2008-06-27 08:28:22 51°19.312 2°52.197 17.3708 4.397844 33.752602 10.421721
2008-06-27 08:28:27 51°19.313 2°52.195 17.3745 4.397844 33.752602 10.352073
2008-06-27 08:28:32 51°19.313 2°52.193 17.373 4.39774 33.751711 10.386897
2008-06-27 08:28:37 51°19.313 2°52.191 17.3731 4.39774 33.751711 10.386897
2008-06-27 08:28:42 51°19.313 2°52.191 17.3718 4.397532 33.750596 10.49137
2008-06-27 08:28:47 51°19.313 2°52.19 17.3719 4.397428 33.749705 10.804786
2008-06-27 08:28:52 51°19.313 2°52.189 17.3718 4.397221 33.747922 10.735138
2008-06-27 08:28:57 51°19.313 2°52.189 17.3711 4.397325 33.749481 10.769962
2008-06-27 08:29:03 51°19.313 2°52.188 17.3717 4.397221 33.747922 10.944082
2008-06-27 08:29:07 51°19.312 2°52.188 17.3723 4.397221 33.747922 10.944082
2008-06-27 08:29:12 51°19.312 2°52.188 17.3701 4.397117 33.747031 10.978906
2008-06-27 08:29:17 51°19.312 2°52.189 17.3693 4.397117 33.747699 11.01373
2008-06-27 08:29:22 51°19.312 2°52.189 17.3711 4.396909 33.745916 11.048554
2008-06-27 08:29:27 51°19.311 2°52.189 17.3689 4.396909 33.745916 11.118203
2008-06-27 08:29:32 51°19.311 2°52.19 17.3695 4.396702 33.744801 11.222675
2008-06-27 08:29:37 51°19.311 2°52.19 17.3693 4.396702 33.744801 11.222675
2008-06-27 08:29:42 51°19.311 2°52.191 17.3676 4.396598 33.74391 11.292323
2008-06-27 08:29:47 51°19.31 2°52.191 17.3689 4.396494 33.743686 11.431619
2008-06-27 08:29:52 51°19.309 2°52.191 17.3699 4.396391 33.743462 11.501267
2008-06-27 08:29:57 51°19.309 2°52.19 17.369 4.396287 33.742571 11.675387
2008-06-27 08:30:02 51°19.308 2°52.19 17.3679 4.396287 33.743238 11.675387
2008-06-27 08:30:07 51°19.307 2°52.19 17.369 4.396287 33.743238 11.675387
2008-06-27 08:30:12 51°19.306 2°52.189 17.3705 4.396183 33.742347 11.849508
2008-06-27 08:30:17 51°19.305 2°52.188 17.3713 4.396079 33.741456 11.814684
2008-06-27 08:30:22 51°19.304 2°52.187 17.37 4.396079 33.742123 11.95398
2008-06-27 08:30:27 51°19.303 2°52.186 17.3692 4.396079 33.741456 12.023628
2008-06-27 08:30:32 51°19.302 2°52.184 17.3687 4.396079 33.741456 12.058452
2008-06-27 08:30:37 51°19.3 2°52.182 17.37 4.396079 33.741456 12.058452
2008-06-27 08:30:42 51°19.299 2°52.18 17.3688 4.395975 33.741232 12.058452
2008-06-27 08:30:47 51°19.298 2°52.179 17.3729 4.396079 33.741456 12.058452
2008-06-27 08:30:52 51°19.296 2°52.177 17.3675 4.396079 33.740788 12.232572
2008-06-27 08:30:57 51°19.295 2°52.175 17.3679 4.396079 33.740788 12.30222
2008-06-27 08:31:02 51°19.294 2°52.173 17.3679 4.395975 33.740564 12.511165
2008-06-27 08:31:07 51°19.292 2°52.171 17.3697 4.395975 33.740564 12.511165
2008-06-27 08:31:12 51°19.291 2°52.168 17.3748 4.395975 33.740564 12.615637
2008-06-27 08:31:17 51°19.29 2°52.166 17.3774 4.396079 33.738786 13.137998
2008-06-27 08:31:23 51°19.288 2°52.163 17.3828 4.39639 33.738124 12.754933
2008-06-27 08:31:27 51°19.287 2°52.161 17.3775 4.39639 33.737456 11.466443
2008-06-27 08:31:32 51°19.285 2°52.158 17.3817 4.395975 33.734559 10.700314
2008-06-27 08:31:37 51°19.284 2°52.156 17.3838 4.395975 33.734559 10.700314
2008-06-27 08:31:42 51°19.283 2°52.155 17.3814 4.395352 33.729212 10.038657
2008-06-27 08:31:47 51°19.282 2°52.153 17.3808 4.394626 33.721641 9.585944
2008-06-27 08:31:52 51°19.281 2°52.151 17.3875 4.394003 33.712962 9.20288
2008-06-27 08:31:57 51°19.28 2°52.15 17.3775 4.393588 33.706732 8.959111
2008-06-27 08:32:02 51°19.279 2°52.149 17.3751 4.393795 33.707181 8.645695
2008-06-27 08:32:07 51°19.278 2°52.148 17.3784 4.393795 33.707181 8.645695
2008-06-27 08:32:12 51°19.277 2°52.147 17.3812 4.393899 33.707406 8.784991
2008-06-27 08:32:17 51°19.276 2°52.146 17.3779 4.394003 33.706964 8.680519
2008-06-27 08:32:22 51°19.275 2°52.145 17.3773 4.394314 33.70897 8.471574
2008-06-27 08:32:27 51°19.275 2°52.144 17.3949 4.394522 33.710751 8.26263
2008-06-27 08:32:32 51°19.274 2°52.143 17.3941 4.395041 33.716538 8.123334
2008-06-27 08:32:37 51°19.273 2°52.143 17.3863 4.395041 33.716538 8.123334
2008-06-27 08:32:42 51°19.272 2°52.142 17.387 4.395352 33.720544 8.401926
2008-06-27 08:32:47 51°19.272 2°52.141 17.3911 4.395456 33.720768 8.610871
2008-06-27 08:32:52 51°19.271 2°52.141 17.3886 4.395871 33.724331 8.993935
2008-06-27 08:32:57 51°19.27 2°52.14 17.394 4.396079 33.725446 8.854639
2008-06-27 08:33:02 51°19.27 2°52.14 17.387 4.396183 33.72367 8.715343
2008-06-27 08:33:07 51°19.269 2°52.14 17.3956 4.396183 33.72367 8.715343
2008-06-27 08:33:12 51°19.268 2°52.14 17.384 4.396494 33.72501 8.854639
2008-06-27 08:33:17 51°19.268 2°52.14 17.39 4.396494 33.724343 9.098407
2008-06-27 08:33:23 51°19.267 2°52.141 17.3889 4.39639 33.722119 8.854639
2008-06-27 08:33:27 51°19.266 2°52.141 17.3928 4.396494 33.721677 8.750167
2008-06-27 08:33:32 51°19.266 2°52.141 17.3943 4.396598 33.721901 8.959111
2008-06-27 08:33:37 51°19.265 2°52.142 17.3895 4.396598 33.721901 8.959111
2008-06-27 08:33:42 51°19.265 2°52.142 17.3912 4.396701 33.722125 9.481472
2008-06-27 08:33:47 51°19.264 2°52.142 17.391 4.396909 33.723907 9.794888
2008-06-27 08:33:52 51°19.263 2°52.142 17.3893 4.397117 33.726354 9.934185
2008-06-27 08:33:57 51°19.263 2°52.142 17.388 4.39722 33.727245 10.143129
2008-06-27 08:34:02 51°19.262 2°52.143 17.3888 4.397324 33.727469 10.177953
2008-06-27 08:34:07 51°19.262 2°52.143 17.3867 4.397324 33.727469 10.177953
2008-06-27 08:34:12 51°19.261 2°52.143 17.3929 4.397428 33.729026 10.526194
2008-06-27 08:34:17 51°19.26 2°52.144 17.399 4.397532 33.730584 10.944082
2008-06-27 08:34:22 51°19.26 2°52.144 17.3981 4.397532 33.73125 11.257499
2008-06-27 08:34:27 51°19.26 2°52.144 17.3978 4.397532 33.73125 11.431619
2008-06-27 08:34:32 51°19.259 2°52.144 17.4023 4.397636 33.732141 11.536091
2008-06-27 08:34:37 51°19.258 2°52.144 17.3978 4.397636 33.732141 11.536091
2008-06-27 08:34:42 51°19.258 2°52.145 17.4014 4.39774 33.733032 11.675387
2008-06-27 08:34:47 51°19.257 2°52.145 17.4001 4.39774 33.732365 12.023628
2008-06-27 08:34:52 51°19.257 2°52.146 17.4003 4.397843 33.731923 12.1281
2008-06-27 08:34:57 51°19.256 2°52.146 17.399 4.397947 33.730813 12.058452
2008-06-27 08:35:02 51°19.256 2°52.146 17.4009 4.398155 33.729928 11.884332
2008-06-27 08:35:07 51°19.255 2°52.146 17.3986 4.398155 33.729928 11.884332
2008-06-27 08:35:12 51°19.255 2°52.147 17.3979 4.398362 33.731043 11.814684
2008-06-27 08:35:17 51°19.254 2°52.147 17.4017 4.398466 33.731267 11.77986
2008-06-27 08:35:22 51°19.253 2°52.147 17.4003 4.39857 33.731491 11.745035
2008-06-27 08:35:27 51°19.253 2°52.148 17.3982 4.398674 33.731715 12.093276
2008-06-27 08:35:32 51°19.252 2°52.149 17.4009 4.398674 33.731715 12.023628
2008-06-27 08:35:38 51°19.252 2°52.149 17.3987 4.398674 33.731715 12.023628
2008-06-27 08:35:42 51°19.251 2°52.149 17.39 4.398674 33.731049 11.745035
2008-06-27 08:35:47 51°19.251 2°52.149 17.3928 4.398881 33.73283 11.570915
2008-06-27 08:35:52 51°19.25 2°52.15 17.4014 4.398881 33.732163 11.570915
2008-06-27 08:35:57 51°19.25 2°52.15 17.3936 4.399089 33.733944 11.501267
2008-06-27 08:36:02 51°19.249 2°52.151 17.3991 4.399089 33.734611 11.431619
2008-06-27 08:36:07 51°19.248 2°52.151 17.3914 4.399089 33.734611 11.431619
2008-06-27 08:36:12 51°19.248 2°52.151 17.3884 4.399296 33.737058 11.327147
2008-06-27 08:36:17 51°19.247 2°52.152 17.392 4.3994 33.739282 11.605739
2008-06-27 08:36:23 51°19.247 2°52.152 17.3944 4.399504 33.741506 11.640563
2008-06-27 08:36:27 51°19.246 2°52.153 17.3929 4.399712 33.743287 11.501267
2008-06-27 08:36:32 51°19.246 2°52.153 17.392 4.399919 33.745735 11.466443
2008-06-27 08:36:37 51°19.246 2°52.154 17.3933 4.399919 33.745735 11.466443
2008-06-27 08:36:42 51°19.245 2°52.154 17.3929 4.400023 33.746626 11.431619
2008-06-27 08:36:47 51°19.245 2°52.155 17.3901 4.400023 33.747293 11.396795
2008-06-27 08:36:52 51°19.245 2°52.155 17.3814 4.400231 33.749074 11.361971
2008-06-27 08:36:57 51°19.244 2°52.156 17.3847 4.400438 33.750856 11.187851
2008-06-27 08:37:02 51°19.244 2°52.156 17.3895 4.400646 33.752637 11.396795
2008-06-27 08:37:07 51°19.244 2°52.156 17.3832 4.400646 33.752637 11.396795
2008-06-27 08:37:12 51°19.243 2°52.157 17.3896 4.400853 33.755086 11.605739
2008-06-27 08:37:17 51°19.243 2°52.158 17.3957 4.400957 33.755976 11.640563
2008-06-27 08:37:22 51°19.243 2°52.158 17.3955 4.401165 33.758425 11.396795
2008-06-27 08:37:27 51°19.243 2°52.159 17.3919 4.401476 33.762432 11.501267
2008-06-27 08:37:32 51°19.242 2°52.16 17.3906 4.401684 33.766215 11.466443
2008-06-27 08:37:37 51°19.242 2°52.16 17.3955 4.401684 33.766215 11.466443
2008-06-27 08:37:42 51°19.242 2°52.161 17.3995 4.401788 33.767773 11.640563
2008-06-27 08:37:47 51°19.241 2°52.161 17.3984 4.40158 33.765324 11.675387
2008-06-27 08:37:52 51°19.241 2°52.162 17.3983 4.401373 33.762875 11.605739
2008-06-27 08:37:57 51°19.241 2°52.163 17.3954 4.401269 33.761984 11.745035
2008-06-27 08:38:02 51°19.241 2°52.164 17.3971 4.401165 33.760426 12.023628
2008-06-27 08:38:07 51°19.24 2°52.164 17.3922 4.401165 33.760426 12.023628
2008-06-27 08:38:12 51°19.24 2°52.165 17.3969 4.401165 33.759092 12.1281
2008-06-27 08:38:17 51°19.24 2°52.166 17.391 4.401269 33.759316 12.162924
2008-06-27 08:38:23 51°19.24 2°52.167 17.3983 4.401269 33.758648 12.058452
2008-06-27 08:38:27 51°19.239 2°52.167 17.3974 4.401372 33.759539 11.814684
2008-06-27 08:38:32 51°19.239 2°52.168 17.3957 4.401372 33.758872 11.77986
2008-06-27 08:38:37 51°19.239 2°52.168 17.3998 4.401372 33.758872 11.77986
2008-06-27 08:38:43 51°19.239 2°52.169 17.3974 4.401372 33.758872 11.849508
2008-06-27 08:38:47 51°19.239 2°52.17 17.3969 4.401372 33.758872 12.023628
2008-06-27 08:38:52 51°19.238 2°52.17 17.3988 4.401476 33.759096 11.988804
2008-06-27 08:38:57 51°19.238 2°52.171 17.3997 4.401476 33.759096 11.640563
2008-06-27 08:39:02 51°19.238 2°52.172 17.3986 4.40158 33.759319 11.501267
2008-06-27 08:39:07 51°19.237 2°52.173 17.4018 4.40158 33.759319 11.501267
2008-06-27 08:39:12 51°19.237 2°52.173 17.4004 4.401684 33.758876 11.292323
2008-06-27 08:39:17 51°19.237 2°52.174 17.3994 4.401788 33.759767 11.431619
2008-06-27 08:39:22 51°19.237 2°52.175 17.3958 4.401788 33.759767 11.396795
2008-06-27 08:39:27 51°19.237 2°52.175 17.398 4.401891 33.75999 11.570915
2008-06-27 08:39:32 51°19.237 2°52.176 17.3934 4.401995 33.760214 11.77986
2008-06-27 08:39:37 51°19.236 2°52.176 17.392 4.401995 33.760214 11.77986
2008-06-27 08:39:42 51°19.236 2°52.177 17.3964 4.402099 33.760437 12.1281
2008-06-27 08:39:47 51°19.236 2°52.177 17.3943 4.402307 33.762219 12.162924
2008-06-27 08:39:52 51°19.236 2°52.178 17.3981 4.402307 33.762886 12.337044
2008-06-27 08:39:57 51°19.236 2°52.179 17.3944 4.40241 33.765111 12.476341
2008-06-27 08:40:02 51°19.236 2°52.18 17.3972 4.40241 33.766445 12.511165
2008-06-27 08:40:07 51°19.236 2°52.181 17.398 4.40241 33.766445 12.511165
2008-06-27 08:40:12 51°19.236 2°52.181 17.3934 4.402307 33.766221 12.615637
2008-06-27 08:40:17 51°19.236 2°52.182 17.395 4.402307 33.766221 12.476341
2008-06-27 08:40:22 51°19.236 2°52.183 17.3932 4.402307 33.766221 12.232572
2008-06-27 08:40:27 51°19.236 2°52.183 17.3947 4.402203 33.765331 12.162924
2008-06-27 08:40:32 51°19.236 2°52.184 17.3952 4.402203 33.765331 12.197748
2008-06-27 08:40:37 51°19.236 2°52.184 17.3931 4.402203 33.765331 12.197748
2008-06-27 08:40:42 51°19.236 2°52.184 17.3904 4.402203 33.764664 12.371868
2008-06-27 08:40:47 51°19.236 2°52.184 17.3947 4.402203 33.765331 12.650461
2008-06-27 08:40:52 51°19.236 2°52.184 17.3949 4.402203 33.765331 12.650461
2008-06-27 08:40:57 51°19.236 2°52.184 17.3971 4.402203 33.765998 12.754933
2008-06-27 08:41:02 51°19.236 2°52.183 17.3939 4.402307 33.766889 12.720109
2008-06-27 08:41:07 51°19.236 2°52.183 17.3965 4.402307 33.766889 12.720109
2008-06-27 08:41:12 51°19.236 2°52.182 17.3958 4.402307 33.767556 12.754933
2008-06-27 08:41:17 51°19.236 2°52.181 17.3934 4.402307 33.767556 12.650461
2008-06-27 08:41:22 51°19.236 2°52.181 17.397 4.402203 33.766665 12.685285
2008-06-27 08:41:27 51°19.237 2°52.18 17.3933 4.40241 33.767779 12.580813
2008-06-27 08:41:32 51°19.237 2°52.179 17.3946 4.402307 33.766221 12.650461
2008-06-27 08:41:37 51°19.237 2°52.178 17.3975 4.402307 33.766221 12.650461
2008-06-27 08:41:42 51°19.238 2°52.176 17.3956 4.402618 33.768894 12.929053
2008-06-27 08:41:47 51°19.238 2°52.175 17.3956 4.402826 33.770675 12.894229
2008-06-27 08:41:52 51°19.239 2°52.174 17.3943 4.402929 33.771566 12.929053
2008-06-27 08:41:57 51°19.239 2°52.173 17.3967 4.402929 33.771566 13.06835
2008-06-27 08:42:02 51°19.24 2°52.172 17.3974 4.402929 33.771566 12.998701
2008-06-27 08:42:07 51°19.24 2°52.172 17.3977 4.402929 33.771566 12.998701
2008-06-27 08:42:12 51°19.241 2°52.171 17.3998 4.403033 33.772457 12.929053
2008-06-27 08:42:17 51°19.242 2°52.17 17.3995 4.403033 33.772457 12.685285
2008-06-27 08:42:22 51°19.243 2°52.17 17.3994 4.403033 33.772457 12.789757
2008-06-27 08:42:27 51°19.243 2°52.169 17.3988 4.403033 33.772457 12.441517
2008-06-27 08:42:32 51°19.244 2°52.169 17.3985 4.403033 33.772457 12.267396
2008-06-27 08:42:37 51°19.245 2°52.168 17.4016 4.403033 33.772457 12.267396
2008-06-27 08:42:43 51°19.246 2°52.168 17.3977 4.402722 33.769117 11.95398
2008-06-27 08:42:47 51°19.247 2°52.167 17.3971 4.402826 33.768673 11.745035
2008-06-27 08:42:52 51°19.248 2°52.167 17.3973 4.402618 33.766892 12.058452
2008-06-27 08:42:57 51°19.248 2°52.167 17.3953 4.402929 33.769564 12.093276
2008-06-27 08:43:02 51°19.249 2°52.166 17.401 4.402826 33.768006 11.988804
2008-06-27 08:43:07 51°19.25 2°52.166 17.3996 4.402826 33.768006 11.988804
2008-06-27 08:43:12 51°19.251 2°52.166 17.3975 4.402929 33.768897 11.95398
2008-06-27 08:43:17 51°19.252 2°52.165 17.3963 4.402826 33.768006 12.337044
2008-06-27 08:43:22 51°19.253 2°52.165 17.3954 4.403137 33.770678 12.441517
2008-06-27 08:43:27 51°19.254 2°52.165 17.3959 4.403241 33.772236 12.197748
2008-06-27 08:43:32 51°19.255 2°52.165 17.3945 4.403241 33.772236 12.162924
2008-06-27 08:43:37 51°19.256 2°52.164 17.3941 4.403241 33.772236 12.162924
2008-06-27 08:43:42 51°19.257 2°52.164 17.3943 4.403448 33.77335 12.197748
2008-06-27 08:43:47 51°19.258 2°52.164 17.3972 4.403552 33.774241 12.232572
2008-06-27 08:43:52 51°19.259 2°52.164 17.3979 4.403656 33.775799 12.30222
2008-06-27 08:43:57 51°19.26 2°52.164 17.3975 4.403864 33.778248 12.162924
2008-06-27 08:44:02 51°19.261 2°52.164 17.4003 4.403864 33.778915 12.406692
2008-06-27 08:44:07 51°19.262 2°52.164 17.3992 4.403864 33.778915 12.406692
2008-06-27 08:44:12 51°19.263 2°52.164 17.4001 4.403864 33.779583 12.337044
2008-06-27 08:44:17 51°19.265 2°52.165 17.4006 4.40376 33.778692 12.650461
2008-06-27 08:44:22 51°19.266 2°52.165 17.4023 4.40376 33.778692 12.580813
2008-06-27 08:44:27 51°19.267 2°52.165 17.4012 4.403656 33.777134 12.789757
2008-06-27 08:44:32 51°19.268 2°52.165 17.3976 4.403448 33.774685 13.207646
2008-06-27 08:44:37 51°19.269 2°52.165 17.394 4.403448 33.774685 13.207646
2008-06-27 08:44:42 51°19.271 2°52.165 17.3968 4.403241 33.771569 13.346942
2008-06-27 08:44:47 51°19.272 2°52.165 17.3955 4.403137 33.770678 13.41659
2008-06-27 08:44:52 51°19.274 2°52.165 17.396 4.403033 33.76912 13.555886
2008-06-27 08:44:57 51°19.275 2°52.165 17.3961 4.402929 33.767562 13.764831
2008-06-27 08:45:03 51°19.277 2°52.166 17.3963 4.40241 33.763776 13.695182
2008-06-27 08:45:07 51°19.277 2°52.166 17.3954 4.40241 33.763776 13.695182
2008-06-27 08:45:12 51°19.279 2°52.167 17.3962 4.402618 33.766225 13.660358
2008-06-27 08:45:17 51°19.28 2°52.167 17.3962 4.402514 33.766001 13.486238
2008-06-27 08:45:23 51°19.281 2°52.168 17.3942 4.40241 33.765778 13.41659
2008-06-27 08:45:27 51°19.282 2°52.168 17.395 4.402307 33.764887 12.963877
2008-06-27 08:45:32 51°19.283 2°52.169 17.3943 4.402307 33.764887 12.894229
2008-06-27 08:45:37 51°19.285 2°52.169 17.3942 4.402307 33.764887 12.894229
2008-06-27 08:45:42 51°19.286 2°52.17 17.3958 4.402307 33.764887 12.720109
2008-06-27 08:45:47 51°19.287 2°52.17 17.3946 4.402307 33.765554 12.476341
2008-06-27 08:45:52 51°19.288 2°52.171 17.3957 4.402307 33.765554 11.95398
2008-06-27 08:45:57 51°19.289 2°52.172 17.3993 4.402307 33.765554 11.605739
2008-06-27 08:46:02 51°19.29 2°52.172 17.3959 4.402203 33.765331 11.501267
2008-06-27 08:46:07 51°19.291 2°52.173 17.3961 4.402203 33.765331 11.501267
2008-06-27 08:46:12 51°19.292 2°52.174 17.3961 4.402203 33.765331 11.361971
2008-06-27 08:46:17 51°19.294 2°52.176 17.3992 4.400853 33.753752 11.292323
2008-06-27 08:46:22 51°19.295 2°52.176 17.3978 4.402099 33.763773 11.153027
2008-06-27 08:46:27 51°19.296 2°52.178 17.3982 4.402099 33.763106 10.804786
2008-06-27 08:46:32 51°19.297 2°52.179 17.4004 4.402099 33.763106 10.769962
2008-06-27 08:46:37 51°19.298 2°52.18 17.4004 4.402099 33.763106 10.769962
2008-06-27 08:46:42 51°19.298 2°52.18 17.4025 4.401995 33.761548 11.083378
2008-06-27 08:46:47 51°19.299 2°52.182 17.4045 4.401995 33.761548 11.118203
2008-06-27 08:46:52 51°19.3 2°52.183 17.4135 4.401891 33.75999 10.978906
2008-06-27 08:46:57 51°19.301 2°52.184 17.4178 4.401788 33.759099 10.282425
2008-06-27 08:47:03 51°19.302 2°52.185 17.423 4.401891 33.759323 9.307352
2008-06-27 08:47:07 51°19.303 2°52.186 17.4239 4.401891 33.759323 9.307352
2008-06-27 08:47:12 51°19.304 2°52.187 17.4222 4.401891 33.758656 8.645695
2008-06-27 08:47:17 51°19.305 2°52.188 17.4222 4.401995 33.75888 8.506398
2008-06-27 08:47:23 51°19.306 2°52.189 17.4253 4.402099 33.757103 8.610871
2008-06-27 08:47:27 51°19.307 2°52.19 17.4267 4.402306 33.755549 8.854639
2008-06-27 08:47:32 51°19.308 2°52.191 17.4262 4.402722 33.754444 8.715343
2008-06-27 08:47:37 51°19.308 2°52.192 17.4252 4.402722 33.754444 8.715343
2008-06-27 08:47:42 51°19.309 2°52.193 17.4262 4.403033 33.753115 8.680519
2008-06-27 08:47:47 51°19.31 2°52.194 17.4262 4.403344 33.753787 8.506398
2008-06-27 08:47:52 51°19.311 2°52.195 17.4236 4.403344 33.75312 8.227806
2008-06-27 08:47:57 51°19.312 2°52.196 17.4251 4.403552 33.753567 7.809917
2008-06-27 08:48:02 51°19.313 2°52.197 17.4232 4.403656 33.753125 7.635797
2008-06-27 08:48:07 51°19.314 2°52.198 17.4234 4.403656 33.753125 7.635797
2008-06-27 08:48:12 51°19.315 2°52.199 17.4258 4.403863 33.754239 7.461677
2008-06-27 08:48:17 51°19.316 2°52.199 17.4316 4.403967 33.755129 7.14826
2008-06-27 08:48:22 51°19.317 2°52.199 17.432 4.404071 33.756019 6.869668
2008-06-27 08:48:27 51°19.318 2°52.2 17.4344 4.404071 33.756019 6.765196
2008-06-27 08:48:32 51°19.318 2°52.2 17.4317 4.404071 33.757352 6.695548
2008-06-27 08:48:37 51°19.319 2°52.201 17.4305 4.404071 33.757352 6.695548
2008-06-27 08:48:42 51°19.32 2°52.201 17.429 4.404071 33.757352 6.556251
2008-06-27 08:48:47 51°19.321 2°52.201 17.4287 4.403967 33.755795 6.486603
2008-06-27 08:48:52 51°19.321 2°52.201 17.4253 4.404071 33.755352 6.486603
2008-06-27 08:48:57 51°19.322 2°52.201 17.4196 4.403967 33.751797 6.521427
2008-06-27 08:49:02 51°19.323 2°52.202 17.4183 4.403967 33.751131 6.556251
2008-06-27 08:49:07 51°19.323 2°52.201 17.4157 4.403967 33.751131 6.556251
2008-06-27 08:49:12 51°19.324 2°52.201 17.413 4.403759 33.749351 6.660724
2008-06-27 08:49:18 51°19.325 2°52.2 17.4084 4.403552 33.748237 6.6259
2008-06-27 08:49:23 51°19.326 2°52.2 17.4076 4.403344 33.747123 7.043788
2008-06-27 08:49:27 51°19.326 2°52.199 17.4051 4.403033 33.745785 7.566149
2008-06-27 08:49:32 51°19.327 2°52.198 17.4014 4.402825 33.74667 8.26263
2008-06-27 08:49:37 51°19.327 2°52.197 17.4011 4.402825 33.74667 8.26263
2008-06-27 08:49:42 51°19.328 2°52.195 17.3993 4.402514 33.747331 8.959111
2008-06-27 08:49:47 51°19.328 2°52.194 17.3971 4.402203 33.747326 9.934185
2008-06-27 08:49:52 51°19.329 2°52.192 17.3967 4.401891 33.747321 10.282425
2008-06-27 08:49:57 51°19.329 2°52.191 17.3996 4.40158 33.74665 10.83961
2008-06-27 08:50:02 51°19.329 2°52.189 17.3985 4.401372 33.746869 11.570915
2008-06-27 08:50:07 51°19.329 2°52.187 17.3969 4.401372 33.746869 11.570915
2008-06-27 08:50:12 51°19.329 2°52.185 17.3953 4.401268 33.748645 11.988804
2008-06-27 08:50:17 51°19.329 2°52.183 17.3979 4.400957 33.747974 12.267396
2008-06-27 08:50:22 51°19.329 2°52.181 17.3972 4.400853 33.748417 12.371868
2008-06-27 08:50:27 51°19.329 2°52.179 17.3968 4.400646 33.747302 12.30222
2008-06-27 08:50:32 51°19.33 2°52.176 17.3969 4.400542 33.746412 12.30222
2008-06-27 08:50:37 51°19.329 2°52.174 17.3937 4.400542 33.746412 12.30222
2008-06-27 08:50:42 51°19.329 2°52.171 17.393 4.400438 33.746188 12.162924
2008-06-27 08:50:47 51°19.329 2°52.169 17.3893 4.400231 33.745073 12.337044
2008-06-27 08:50:52 51°19.329 2°52.166 17.3894 4.396805 33.715687 12.859405
2008-06-27 08:50:57 51°19.328 2°52.164 17.3894 4.400231 33.745073 13.103174
2008-06-27 08:51:02 51°19.328 2°52.161 17.3853 4.400231 33.745073 13.486238
2008-06-27 08:51:07 51°19.327 2°52.158 17.3869 4.400231 33.745073 13.486238
2008-06-27 08:51:12 51°19.326 2°52.156 17.3863 4.400334 33.747298 13.660358
2008-06-27 08:51:17 51°19.326 2°52.153 17.3859 4.400542 33.750413 13.973775
2008-06-27 08:51:23 51°19.324 2°52.15 17.3877 4.400438 33.750856 14.113071
2008-06-27 08:51:27 51°19.323 2°52.148 17.3875 4.400334 33.751299 14.322015
2008-06-27 08:51:32 51°19.323 2°52.145 17.3897 4.400231 33.751742 13.938951
2008-06-27 08:51:38 51°19.321 2°52.142 17.3889 4.400231 33.751742 13.938951
2008-06-27 08:51:42 51°19.32 2°52.139 17.3892 4.400127 33.751518 13.660358
2008-06-27 08:51:47 51°19.319 2°52.137 17.3903 4.399919 33.750404 13.695182
2008-06-27 08:51:52 51°19.317 2°52.134 17.3895 4.399816 33.75018 13.451414
2008-06-27 08:51:57 51°19.316 2°52.131 17.3924 4.399712 33.749289 13.172822
2008-06-27 08:52:02 51°19.315 2°52.128 17.3929 4.399608 33.747732 12.859405
2008-06-27 08:52:07 51°19.313 2°52.126 17.3945 4.399608 33.747732 12.859405
2008-06-27 08:52:12 51°19.312 2°52.123 17.3962 4.399504 33.746174 12.162924
2008-06-27 08:52:17 51°19.311 2°52.12 17.3957 4.3994 33.744616 11.570915
2008-06-27 08:52:22 51°19.309 2°52.117 17.3966 4.3994 33.743949 11.222675
2008-06-27 08:52:27 51°19.307 2°52.114 17.3955 4.3994 33.743949 10.735138
2008-06-27 08:52:32 51°19.306 2°52.111 17.3956 4.3994 33.742616 10.49137
2008-06-27 08:52:37 51°19.304 2°52.109 17.3936 4.3994 33.742616 10.49137
2008-06-27 08:52:42 51°19.302 2°52.106 17.3946 4.3994 33.741949 10.561018
2008-06-27 08:52:47 51°19.301 2°52.103 17.394 4.3994 33.740616 11.048554
2008-06-27 08:52:52 51°19.299 2°52.101 17.3949 4.3994 33.739949 11.327147
2008-06-27 08:52:57 51°19.297 2°52.098 17.3954 4.399608 33.741063 11.745035
2008-06-27 08:53:02 51°19.296 2°52.095 17.395 4.399815 33.742178 12.058452
2008-06-27 08:53:07 51°19.295 2°52.092 17.3947 4.399815 33.742178 12.058452
2008-06-27 08:53:12 51°19.293 2°52.089 17.3945 4.400023 33.744626 11.884332
2008-06-27 08:53:17 51°19.292 2°52.086 17.3951 4.400231 33.747074 11.536091
2008-06-27 08:53:22 51°19.291 2°52.083 17.3952 4.400334 33.747964 10.978906
2008-06-27 08:53:27 51°19.289 2°52.08 17.3968 4.400334 33.747964 10.66549
2008-06-27 08:53:32 51°19.288 2°52.077 17.396 4.400438 33.748188 10.352073
2008-06-27 08:53:38 51°19.287 2°52.073 17.3966 4.400438 33.748188 10.352073
2008-06-27 08:53:42 51°19.286 2°52.071 17.397 4.400646 33.749969 9.899361
2008-06-27 08:53:47 51°19.285 2°52.068 17.3975 4.40075 33.75086 9.655592
2008-06-27 08:53:52 51°19.285 2°52.066 17.3979 4.400957 33.752641 9.377
2008-06-27 08:53:57 51°19.284 2°52.064 17.3996 4.401165 33.753756 9.028759
2008-06-27 08:54:02 51°19.283 2°52.061 17.399 4.401269 33.754646 8.819815
2008-06-27 08:54:07 51°19.283 2°52.059 17.4005 4.401269 33.754646 8.819815
2008-06-27 08:54:12 51°19.282 2°52.058 17.3995 4.401476 33.756428 8.715343
2008-06-27 08:54:17 51°19.282 2°52.056 17.3999 4.40158 33.757318 8.715343
2008-06-27 08:54:23 51°19.281 2°52.054 17.3974 4.401684 33.757542 8.332278
2008-06-27 08:54:27 51°19.281 2°52.053 17.3979 4.401891 33.759323 8.158158
2008-06-27 08:54:32 51°19.281 2°52.051 17.3985 4.401995 33.759547 8.08851
2008-06-27 08:54:37 51°19.28 2°52.05 17.3983 4.401995 33.759547 8.08851
2008-06-27 08:54:42 51°19.28 2°52.049 17.3973 4.402307 33.761552 8.123334
2008-06-27 08:54:47 51°19.28 2°52.048 17.399 4.40241 33.762442 8.053686
2008-06-27 08:54:52 51°19.279 2°52.047 17.3998 4.402618 33.764223 8.053686
2008-06-27 08:54:57 51°19.279 2°52.046 17.4008 4.402826 33.766672 7.984038
2008-06-27 08:55:02 51°19.278 2°52.044 17.3993 4.402929 33.766895 8.08851
2008-06-27 08:55:07 51°19.278 2°52.044 17.4008 4.402929 33.766895 8.08851
2008-06-27 08:55:12 51°19.278 2°52.043 17.399 4.402929 33.767562 8.26263
2008-06-27 08:55:17 51°19.278 2°52.042 17.3967 4.403033 33.768453 8.26263
2008-06-27 08:55:22 51°19.277 2°52.042 17.3952 4.403033 33.768453 8.506398
2008-06-27 08:55:27 51°19.277 2°52.041 17.3943 4.403137 33.769344 8.610871
2008-06-27 08:55:32 51°19.276 2°52.04 17.3949 4.403241 33.769567 8.610871
2008-06-27 08:55:37 51°19.276 2°52.04 17.3928 4.403241 33.769567 8.610871
2008-06-27 08:55:42 51°19.276 2°52.039 17.3934 4.403241 33.769567 8.784991
2008-06-27 08:55:47 51°19.275 2°52.039 17.394 4.403241 33.769567 8.889463
2008-06-27 08:55:52 51°19.275 2°52.039 17.3955 4.403241 33.770234 8.889463
2008-06-27 08:55:57 51°19.275 2°52.038 17.395 4.403241 33.770902 9.20288
2008-06-27 08:56:02 51°19.275 2°52.038 17.3939 4.403345 33.77246 9.585944
2008-06-27 08:56:07 51°19.274 2°52.038 17.3938 4.403345 33.77246 9.585944
2008-06-27 08:56:12 51°19.274 2°52.038 17.3932 4.403241 33.772236 9.899361
2008-06-27 08:56:17 51°19.274 2°52.038 17.3927 4.403137 33.772013 10.212777
2008-06-27 08:56:23 51°19.273 2°52.038 17.3922 4.402929 33.770231 10.49137
2008-06-27 08:56:27 51°19.273 2°52.038 17.3925 4.402722 33.76845 10.804786
2008-06-27 08:56:32 51°19.273 2°52.038 17.3912 4.402722 33.76845 11.083378
2008-06-27 08:56:37 51°19.273 2°52.038 17.3919 4.402722 33.76845 11.083378
2008-06-27 08:56:43 51°19.272 2°52.039 17.391 4.402618 33.768226 11.396795
2008-06-27 08:56:47 51°19.272 2°52.039 17.3921 4.402514 33.768003 11.570915
2008-06-27 08:56:52 51°19.272 2°52.039 17.3939 4.402307 33.766221 11.640563
2008-06-27 08:56:57 51°19.272 2°52.04 17.3944 4.402307 33.766221 11.745035
2008-06-27 08:57:03 51°19.271 2°52.04 17.3943 4.402514 33.768003 11.988804
2008-06-27 08:57:07 51°19.271 2°52.041 17.3965 4.402514 33.768003 11.988804
2008-06-27 08:57:12 51°19.271 2°52.041 17.3969 4.402826 33.77201 12.058452
2008-06-27 08:57:17 51°19.27 2°52.042 17.4 4.402826 33.77201 12.023628
2008-06-27 08:57:22 51°19.27 2°52.043 17.4029 4.402826 33.77201 12.267396
2008-06-27 08:57:27 51°19.27 2°52.043 17.4033 4.402722 33.770452 12.476341
2008-06-27 08:57:32 51°19.27 2°52.044 17.4041 4.402514 33.767336 12.511165
2008-06-27 08:57:37 51°19.269 2°52.044 17.4034 4.402514 33.767336 12.511165
2008-06-27 08:57:42 51°19.269 2°52.045 17.4048 4.402514 33.766668 12.511165
2008-06-27 08:57:47 51°19.269 2°52.046 17.4041 4.40241 33.764443 12.511165
2008-06-27 08:57:52 51°19.269 2°52.047 17.405 4.40241 33.763109 12.754933
2008-06-27 08:57:57 51°19.268 2°52.048 17.405 4.40241 33.761108 12.963877
2008-06-27 08:58:02 51°19.268 2°52.049 17.4045 4.402514 33.761332 13.103174
2008-06-27 08:58:07 51°19.268 2°52.05 17.4037 4.402514 33.761332 13.103174
2008-06-27 08:58:12 51°19.267 2°52.051 17.4034 4.402514 33.759998 13.103174
2008-06-27 08:58:17 51°19.267 2°52.052 17.4026 4.402618 33.760888 13.103174
2008-06-27 08:58:22 51°19.267 2°52.052 17.4024 4.402825 33.762002 13.137998
2008-06-27 08:58:27 51°19.267 2°52.054 17.4027 4.402929 33.762226 13.103174
2008-06-27 08:58:32 51°19.266 2°52.055 17.4023 4.403137 33.76334 13.103174
2008-06-27 08:58:37 51°19.266 2°52.056 17.4022 4.403137 33.76334 13.103174
2008-06-27 08:58:43 51°19.266 2°52.057 17.4012 4.403344 33.765788 13.312118
2008-06-27 08:58:47 51°19.265 2°52.058 17.4017 4.403448 33.766679 13.24247
2008-06-27 08:58:52 51°19.265 2°52.06 17.4012 4.403552 33.768236 13.312118
2008-06-27 08:58:57 51°19.265 2°52.061 17.4014 4.40376 33.770017 13.346942
2008-06-27 08:59:03 51°19.264 2°52.063 17.4025 4.40376 33.770017 13.346942
2008-06-27 08:59:07 51°19.264 2°52.064 17.4025 4.40376 33.770017 13.346942
2008-06-27 08:59:12 51°19.264 2°52.066 17.4026 4.404071 33.772689 13.555886
2008-06-27 08:59:17 51°19.264 2°52.067 17.4003 4.404175 33.774247 13.695182
2008-06-27 08:59:22 51°19.263 2°52.068 17.4 4.404279 33.775137 13.869303
2008-06-27 08:59:27 51°19.263 2°52.07 17.4013 4.404279 33.775137 13.973775
2008-06-27 08:59:32 51°19.263 2°52.071 17.4006 4.404279 33.775137 14.078247
2008-06-27 08:59:37 51°19.262 2°52.073 17.4015 4.404279 33.775137 14.078247
2008-06-27 08:59:42 51°19.262 2°52.074 17.4013 4.404486 33.777586 14.078247
2008-06-27 08:59:47 51°19.262 2°52.076 17.4014 4.404486 33.776918 14.182719
2008-06-27 08:59:52 51°19.262 2°52.077 17.4017 4.40459 33.777809 14.635432
2008-06-27 08:59:57 51°19.261 2°52.079 17.4008 4.404694 33.779367 14.70508
2008-06-27 09:00:02 51°19.261 2°52.08 17.4011 4.404694 33.779367 14.635432
2008-06-27 09:00:07 51°19.261 2°52.082 17.4021 4.404694 33.779367 14.635432
2008-06-27 09:00:12 51°19.26 2°52.084 17.4028 4.404798 33.780258 14.565784
2008-06-27 09:00:17 51°19.26 2°52.085 17.4045 4.404902 33.780481 14.600608
2008-06-27 09:00:22 51°19.26 2°52.086 17.4046 4.404798 33.77959 14.565784
2008-06-27 09:00:27 51°19.26 2°52.088 17.4054 4.404798 33.77959 14.70508
2008-06-27 09:00:32 51°19.26 2°52.09 17.4057 4.404798 33.77959 14.565784
2008-06-27 09:00:37 51°19.259 2°52.091 17.4051 4.404798 33.77959 14.565784
2008-06-27 09:00:43 51°19.259 2°52.093 17.4059 4.404798 33.77959 14.635432
2008-06-27 09:00:47 51°19.259 2°52.095 17.4095 4.404902 33.779814 14.426488
2008-06-27 09:00:52 51°19.258 2°52.096 17.409 4.404902 33.779146 14.217543
2008-06-27 09:00:58 51°19.258 2°52.098 17.4106 4.405005 33.780037 14.322015
2008-06-27 09:01:03 51°19.258 2°52.099 17.4111 4.405109 33.78026 14.287191
2008-06-27 09:01:07 51°19.257 2°52.101 17.4108 4.405109 33.78026 14.287191
2008-06-27 09:01:12 51°19.257 2°52.102 17.4119 4.405109 33.779593 14.426488
2008-06-27 09:01:17 51°19.257 2°52.104 17.4129 4.405213 33.779816 14.252367
2008-06-27 09:01:22 51°19.256 2°52.106 17.4171 4.405317 33.780039 13.695182
2008-06-27 09:01:27 51°19.256 2°52.107 17.4159 4.40542 33.780263 13.625534
2008-06-27 09:01:32 51°19.255 2°52.108 17.4178 4.405524 33.779819 13.660358
2008-06-27 09:01:37 51°19.254 2°52.11 17.4179 4.405524 33.779819 13.660358
2008-06-27 09:01:42 51°19.254 2°52.112 17.4174 4.405524 33.779152 13.695182
2008-06-27 09:01:47 51°19.253 2°52.113 17.4188 4.405628 33.780042 14.008599
2008-06-27 09:01:52 51°19.253 2°52.115 17.4191 4.405732 33.780265 14.043423
2008-06-27 09:01:57 51°19.252 2°52.116 17.4207 4.405836 33.779822 14.008599
2008-06-27 09:02:02 51°19.251 2°52.118 17.4216 4.405939 33.779378 14.113071
2008-06-27 09:02:07 51°19.251 2°52.119 17.422 4.405939 33.779378 14.113071
2008-06-27 09:02:12 51°19.25 2°52.121 17.4229 4.406043 33.778934 14.252367
2008-06-27 09:02:17 51°19.249 2°52.122 17.4241 4.406147 33.779157 14.252367
2008-06-27 09:02:22 51°19.249 2°52.124 17.4238 4.406355 33.780271 14.147895
2008-06-27 09:02:27 51°19.248 2°52.125 17.4239 4.406458 33.780494 13.555886
2008-06-27 09:02:32 51°19.247 2°52.126 17.4256 4.406562 33.780718 13.137998
2008-06-27 09:02:37 51°19.247 2°52.128 17.4274 4.406562 33.780718 13.137998
2008-06-27 09:02:42 51°19.246 2°52.129 17.4267 4.40677 33.781831 13.06835
2008-06-27 09:02:47 51°19.245 2°52.129 17.4278 4.406977 33.782278 12.963877
2008-06-27 09:02:52 51°19.245 2°52.131 17.4298 4.407289 33.784948 12.685285
2008-06-27 09:02:58 51°19.244 2°52.132 17.4296 4.407496 33.786062 11.988804
2008-06-27 09:03:03 51°19.243 2°52.133 17.4293 4.407911 33.788956 11.431619
2008-06-27 09:03:07 51°19.242 2°52.134 17.4294 4.407911 33.788956 11.431619
2008-06-27 09:03:12 51°19.242 2°52.134 17.4286 4.408223 33.790959 10.769962
2008-06-27 09:03:17 51°19.241 2°52.135 17.4285 4.408534 33.792296 10.561018
2008-06-27 09:03:23 51°19.24 2°52.136 17.4284 4.408742 33.793409 9.899361
2008-06-27 09:03:27 51°19.239 2°52.137 17.4287 4.408949 33.794523 9.55112
2008-06-27 09:03:32 51°19.239 2°52.137 17.4275 4.409157 33.795636 9.342176
2008-06-27 09:03:37 51°19.238 2°52.138 17.4277 4.409157 33.795636 9.342176
2008-06-27 09:03:42 51°19.237 2°52.139 17.4264 4.409365 33.796749 9.411824
2008-06-27 09:03:47 51°19.236 2°52.14 17.4259 4.409468 33.797639 9.237704
2008-06-27 09:03:52 51°19.235 2°52.141 17.4257 4.409572 33.798529 8.993935
2008-06-27 09:03:57 51°19.235 2°52.141 17.4287 4.40978 33.800977 9.098407
2008-06-27 09:04:02 51°19.234 2°52.142 17.4289 4.409884 33.801867 9.028759
2008-06-27 09:04:07 51°19.233 2°52.143 17.4311 4.409884 33.801867 9.028759
2008-06-27 09:04:12 51°19.233 2°52.144 17.431 4.409987 33.802757 9.063583
2008-06-27 09:04:17 51°19.232 2°52.144 17.4293 4.409987 33.803425 9.342176
2008-06-27 09:04:22 51°19.231 2°52.145 17.4296 4.409987 33.804092 9.620768
2008-06-27 09:04:27 51°19.23 2°52.146 17.4319 4.409987 33.804092 9.899361
2008-06-27 09:04:32 51°19.23 2°52.147 17.4331 4.409987 33.802757 10.386897
2008-06-27 09:04:37 51°19.229 2°52.147 17.4337 4.409987 33.802757 10.386897
2008-06-27 09:04:42 51°19.228 2°52.148 17.4347 4.409987 33.80209 11.048554
2008-06-27 09:04:47 51°19.227 2°52.148 17.4348 4.410091 33.802313 11.501267
2008-06-27 09:04:52 51°19.227 2°52.149 17.4363 4.410195 33.802536 11.710211
2008-06-27 09:04:57 51°19.226 2°52.149 17.4347 4.410403 33.803649 11.849508
2008-06-27 09:05:03 51°19.225 2°52.15 17.4342 4.410506 33.804539 11.745035
2008-06-27 09:05:07 51°19.225 2°52.151 17.4324 4.410506 33.804539 11.745035
2008-06-27 09:05:12 51°19.224 2°52.152 17.4311 4.41061 33.804762 11.570915
2008-06-27 09:05:18 51°19.223 2°52.153 17.4316 4.410714 33.804318 11.153027
2008-06-27 09:05:23 51°19.222 2°52.153 17.4321 4.410922 33.805431 10.978906
2008-06-27 09:05:27 51°19.222 2°52.154 17.4338 4.411129 33.806544 11.083378
2008-06-27 09:05:32 51°19.221 2°52.155 17.4344 4.411337 33.808324 11.187851
2008-06-27 09:05:37 51°19.221 2°52.155 17.4344 4.411337 33.808324 11.187851
2008-06-27 09:05:42 51°19.22 2°52.156 17.4367 4.411441 33.809882 11.222675
2008-06-27 09:05:47 51°19.219 2°52.156 17.4371 4.411648 33.812997 11.292323
2008-06-27 09:05:52 51°19.218 2°52.157 17.4379 4.411752 33.813887 10.421721
2008-06-27 09:05:57 51°19.218 2°52.157 17.4395 4.411752 33.813219 10.282425
2008-06-27 09:06:02 51°19.217 2°52.158 17.4406 4.411856 33.81411 10.143129
2008-06-27 09:06:07 51°19.216 2°52.158 17.441 4.411856 33.81411 10.143129
2008-06-27 09:06:12 51°19.216 2°52.158 17.4411 4.41196 33.813665 10.003833
2008-06-27 09:06:17 51°19.215 2°52.158 17.4402 4.412063 33.814555 9.969009
2008-06-27 09:06:22 51°19.214 2°52.158 17.4387 4.412167 33.81411 9.934185
2008-06-27 09:06:27 51°19.212 2°52.157 17.4373 4.412375 33.815223 9.829713
2008-06-27 09:06:32 51°19.211 2°52.155 17.4378 4.412479 33.814779 9.585944
2008-06-27 09:06:37 51°19.209 2°52.153 17.4392 4.412479 33.814779 9.585944
2008-06-27 09:06:42 51°19.207 2°52.151 17.4424 4.412582 33.814334 9.516296
2008-06-27 09:06:47 51°19.205 2°52.149 17.4418 4.41279 33.816114 9.794888
2008-06-27 09:06:52 51°19.203 2°52.147 17.4416 4.412998 33.817894 9.934185
2008-06-27 09:06:57 51°19.2 2°52.145 17.4417 4.413309 33.820564 9.655592
2008-06-27 09:07:02 51°19.196 2°52.143 17.4442 4.41362 33.823902 9.481472
2008-06-27 09:07:07 51°19.192 2°52.142 17.4401 4.41362 33.823902 9.481472
2008-06-27 09:07:12 51°19.188 2°52.142 17.4331 4.413932 33.826572 9.411824
2008-06-27 09:07:18 51°19.182 2°52.143 17.4313 4.414139 33.827018 9.411824